<?xml version="1.0" encoding="UTF-8"?>
<gpx version="1.1" creator="https://www.youtrack.es" xsi:schemaLocation="http://www.topografix.com/GPX/1/1 http://www.topografix.com/GPX/1/1/gpx.xsd http://www.garmin.com/xmlschemas/GpxExtensions/v3 http://www.garmin.com/xmlschemas/GpxExtensionsv3.xsd http://www.garmin.com/xmlschemas/TrackPointExtension/v1 http://www.garmin.com/xmlschemas/TrackPointExtensionv1.xsd" xmlns:gpxtpx="http://www.garmin.com/xmlschemas/TrackPointExtension/v1" xmlns:gpxx="http://www.garmin.com/xmlschemas/GpxExtensions/v3" xmlns:xsi="http://www.w3.org/2001/XMLSchema-instance">
  <metadata>
    <link href="https://www.youtrack.es">
      <text>YouTrack.es</text>
    </link>
    <time>2026-05-08T07:13:02Z</time>
  </metadata>
  <trk>
    <src>https://www.youtrack.es</src>
    <link href="https://www.youtrack.es/ruta/38581-viii-btt-manilva-lluvia">
      <text>YouTrack.es</text>
    </link>
    <trkseg>
      <trkpt lat="" lon=""/>
      <trkpt lat="36.3476220" lon="-5.2624350">
        <ele>84.0</ele>
        <time>2022-12-06T23:25:05Z</time>
      </trkpt>
      <trkpt lat="36.3485740" lon="-5.2625210">
        <ele>93.3</ele>
        <time>2022-12-06T23:25:45Z</time>
      </trkpt>
      <trkpt lat="36.3498080" lon="-5.2621130">
        <ele>102.6</ele>
        <time>2022-12-06T23:26:25Z</time>
      </trkpt>
      <trkpt lat="36.3507170" lon="-5.2620380">
        <ele>110.3</ele>
        <time>2022-12-06T23:27:05Z</time>
      </trkpt>
      <trkpt lat="36.3517610" lon="-5.2615630">
        <ele>116.2</ele>
        <time>2022-12-06T23:27:45Z</time>
      </trkpt>
      <trkpt lat="36.3519870" lon="-5.2614700">
        <ele>111.6</ele>
        <time>2022-12-06T23:28:25Z</time>
      </trkpt>
      <trkpt lat="36.3523730" lon="-5.2614990">
        <ele>103.4</ele>
        <time>2022-12-06T23:29:05Z</time>
      </trkpt>
      <trkpt lat="36.3526030" lon="-5.2613610">
        <ele>100.2</ele>
        <time>2022-12-06T23:29:45Z</time>
      </trkpt>
      <trkpt lat="36.3526840" lon="-5.2611710">
        <ele>97.8</ele>
        <time>2022-12-06T23:30:25Z</time>
      </trkpt>
      <trkpt lat="36.3527010" lon="-5.2608600">
        <ele>94.4</ele>
        <time>2022-12-06T23:31:05Z</time>
      </trkpt>
      <trkpt lat="36.3527680" lon="-5.2604380">
        <ele>90.2</ele>
        <time>2022-12-06T23:31:45Z</time>
      </trkpt>
      <trkpt lat="36.3528690" lon="-5.2602470">
        <ele>87.5</ele>
        <time>2022-12-06T23:32:25Z</time>
      </trkpt>
      <trkpt lat="36.3531540" lon="-5.2599370">
        <ele>80.4</ele>
        <time>2022-12-06T23:33:05Z</time>
      </trkpt>
      <trkpt lat="36.3532920" lon="-5.2593470">
        <ele>71.3</ele>
        <time>2022-12-06T23:33:45Z</time>
      </trkpt>
      <trkpt lat="36.3534810" lon="-5.2590000">
        <ele>65.6</ele>
        <time>2022-12-06T23:34:25Z</time>
      </trkpt>
      <trkpt lat="36.3536340" lon="-5.2584850">
        <ele>58.3</ele>
        <time>2022-12-06T23:35:05Z</time>
      </trkpt>
      <trkpt lat="36.3538230" lon="-5.2580050">
        <ele>54.4</ele>
        <time>2022-12-06T23:35:45Z</time>
      </trkpt>
      <trkpt lat="36.3541580" lon="-5.2573080">
        <ele>52.5</ele>
        <time>2022-12-06T23:36:25Z</time>
      </trkpt>
      <trkpt lat="36.3544000" lon="-5.2566470">
        <ele>43.8</ele>
        <time>2022-12-06T23:37:05Z</time>
      </trkpt>
      <trkpt lat="36.3546640" lon="-5.2563650">
        <ele>37.0</ele>
        <time>2022-12-06T23:37:45Z</time>
      </trkpt>
      <trkpt lat="36.3554070" lon="-5.2561770">
        <ele>29.5</ele>
        <time>2022-12-06T23:38:25Z</time>
      </trkpt>
      <trkpt lat="36.3564600" lon="-5.2551440">
        <ele>30.3</ele>
        <time>2022-12-06T23:39:05Z</time>
      </trkpt>
      <trkpt lat="36.3568910" lon="-5.2549670">
        <ele>32.6</ele>
        <time>2022-12-06T23:39:45Z</time>
      </trkpt>
      <trkpt lat="36.3575220" lon="-5.2545840">
        <ele>36.7</ele>
        <time>2022-12-06T23:40:25Z</time>
      </trkpt>
      <trkpt lat="36.3577500" lon="-5.2547040">
        <ele>37.5</ele>
        <time>2022-12-06T23:41:05Z</time>
      </trkpt>
      <trkpt lat="36.3577630" lon="-5.2546680">
        <ele>37.6</ele>
        <time>2022-12-06T23:41:45Z</time>
      </trkpt>
      <trkpt lat="36.3577810" lon="-5.2546290">
        <ele>37.7</ele>
        <time>2022-12-06T23:42:25Z</time>
      </trkpt>
      <trkpt lat="36.3578020" lon="-5.2545860">
        <ele>37.8</ele>
        <time>2022-12-06T23:43:05Z</time>
      </trkpt>
      <trkpt lat="36.3578230" lon="-5.2545390">
        <ele>37.9</ele>
        <time>2022-12-06T23:43:45Z</time>
      </trkpt>
      <trkpt lat="36.3578420" lon="-5.2544890">
        <ele>38.0</ele>
        <time>2022-12-06T23:44:25Z</time>
      </trkpt>
      <trkpt lat="36.3578520" lon="-5.2544360">
        <ele>38.0</ele>
        <time>2022-12-06T23:45:05Z</time>
      </trkpt>
      <trkpt lat="36.3578540" lon="-5.2543770">
        <ele>38.1</ele>
        <time>2022-12-06T23:45:45Z</time>
      </trkpt>
      <trkpt lat="36.3578600" lon="-5.2543200">
        <ele>38.2</ele>
        <time>2022-12-06T23:46:25Z</time>
      </trkpt>
      <trkpt lat="36.3578720" lon="-5.2542660">
        <ele>38.3</ele>
        <time>2022-12-06T23:47:05Z</time>
      </trkpt>
      <trkpt lat="36.3578990" lon="-5.2542190">
        <ele>38.3</ele>
        <time>2022-12-06T23:47:45Z</time>
      </trkpt>
      <trkpt lat="36.3579370" lon="-5.2541810">
        <ele>38.4</ele>
        <time>2022-12-06T23:48:25Z</time>
      </trkpt>
      <trkpt lat="36.3579800" lon="-5.2541490">
        <ele>38.5</ele>
        <time>2022-12-06T23:49:05Z</time>
      </trkpt>
      <trkpt lat="36.3580260" lon="-5.2541180">
        <ele>38.6</ele>
        <time>2022-12-06T23:49:45Z</time>
      </trkpt>
      <trkpt lat="36.3580740" lon="-5.2540890">
        <ele>38.7</ele>
        <time>2022-12-06T23:50:25Z</time>
      </trkpt>
      <trkpt lat="36.3581240" lon="-5.2540570">
        <ele>38.8</ele>
        <time>2022-12-06T23:51:05Z</time>
      </trkpt>
      <trkpt lat="36.3581710" lon="-5.2540240">
        <ele>38.9</ele>
        <time>2022-12-06T23:51:45Z</time>
      </trkpt>
      <trkpt lat="36.3582190" lon="-5.2539980">
        <ele>39.0</ele>
        <time>2022-12-06T23:52:25Z</time>
      </trkpt>
      <trkpt lat="36.3582670" lon="-5.2539680">
        <ele>39.2</ele>
        <time>2022-12-06T23:53:05Z</time>
      </trkpt>
      <trkpt lat="36.3583110" lon="-5.2539340">
        <ele>39.4</ele>
        <time>2022-12-06T23:53:45Z</time>
      </trkpt>
      <trkpt lat="36.3583530" lon="-5.2539010">
        <ele>39.6</ele>
        <time>2022-12-06T23:54:25Z</time>
      </trkpt>
      <trkpt lat="36.3583900" lon="-5.2538640">
        <ele>39.7</ele>
        <time>2022-12-06T23:55:05Z</time>
      </trkpt>
      <trkpt lat="36.3584170" lon="-5.2538180">
        <ele>39.9</ele>
        <time>2022-12-06T23:55:45Z</time>
      </trkpt>
      <trkpt lat="36.3584310" lon="-5.2537720">
        <ele>40.0</ele>
        <time>2022-12-06T23:56:25Z</time>
      </trkpt>
      <trkpt lat="36.3584400" lon="-5.2537230">
        <ele>40.2</ele>
        <time>2022-12-06T23:57:05Z</time>
      </trkpt>
      <trkpt lat="36.3584500" lon="-5.2536730">
        <ele>40.3</ele>
        <time>2022-12-06T23:57:45Z</time>
      </trkpt>
      <trkpt lat="36.3584670" lon="-5.2536260">
        <ele>40.5</ele>
        <time>2022-12-06T23:58:25Z</time>
      </trkpt>
      <trkpt lat="36.3584910" lon="-5.2535870">
        <ele>40.7</ele>
        <time>2022-12-06T23:59:05Z</time>
      </trkpt>
      <trkpt lat="36.3585190" lon="-5.2535560">
        <ele>40.9</ele>
        <time>2022-12-06T23:59:45Z</time>
      </trkpt>
      <trkpt lat="36.3585450" lon="-5.2535250">
        <ele>41.1</ele>
        <time>2022-12-07T00:00:25Z</time>
      </trkpt>
      <trkpt lat="36.3585680" lon="-5.2534930">
        <ele>41.2</ele>
        <time>2022-12-07T00:01:05Z</time>
      </trkpt>
      <trkpt lat="36.3585920" lon="-5.2534650">
        <ele>41.4</ele>
        <time>2022-12-07T00:01:45Z</time>
      </trkpt>
      <trkpt lat="36.3586170" lon="-5.2534390">
        <ele>41.6</ele>
        <time>2022-12-07T00:02:25Z</time>
      </trkpt>
      <trkpt lat="36.3586420" lon="-5.2534170">
        <ele>41.8</ele>
        <time>2022-12-07T00:03:05Z</time>
      </trkpt>
      <trkpt lat="36.3586690" lon="-5.2533980">
        <ele>42.1</ele>
        <time>2022-12-07T00:03:45Z</time>
      </trkpt>
      <trkpt lat="36.3586950" lon="-5.2533850">
        <ele>42.3</ele>
        <time>2022-12-07T00:04:25Z</time>
      </trkpt>
      <trkpt lat="36.3587200" lon="-5.2533750">
        <ele>42.6</ele>
        <time>2022-12-07T00:05:05Z</time>
      </trkpt>
      <trkpt lat="36.3587430" lon="-5.2533630">
        <ele>42.8</ele>
        <time>2022-12-07T00:05:45Z</time>
      </trkpt>
      <trkpt lat="36.3587660" lon="-5.2533550">
        <ele>43.1</ele>
        <time>2022-12-07T00:06:25Z</time>
      </trkpt>
      <trkpt lat="36.3587890" lon="-5.2533510">
        <ele>43.4</ele>
        <time>2022-12-07T00:07:05Z</time>
      </trkpt>
      <trkpt lat="36.3588140" lon="-5.2533440">
        <ele>43.7</ele>
        <time>2022-12-07T00:07:45Z</time>
      </trkpt>
      <trkpt lat="36.3588350" lon="-5.2533370">
        <ele>44.0</ele>
        <time>2022-12-07T00:08:25Z</time>
      </trkpt>
      <trkpt lat="36.3588580" lon="-5.2533300">
        <ele>44.3</ele>
        <time>2022-12-07T00:09:05Z</time>
      </trkpt>
      <trkpt lat="36.3588800" lon="-5.2533260">
        <ele>44.7</ele>
        <time>2022-12-07T00:09:45Z</time>
      </trkpt>
      <trkpt lat="36.3589030" lon="-5.2533230">
        <ele>45.0</ele>
        <time>2022-12-07T00:10:25Z</time>
      </trkpt>
      <trkpt lat="36.3589260" lon="-5.2533190">
        <ele>45.4</ele>
        <time>2022-12-07T00:11:05Z</time>
      </trkpt>
      <trkpt lat="36.3589480" lon="-5.2533130">
        <ele>45.8</ele>
        <time>2022-12-07T00:11:45Z</time>
      </trkpt>
      <trkpt lat="36.3589710" lon="-5.2533040">
        <ele>46.2</ele>
        <time>2022-12-07T00:12:25Z</time>
      </trkpt>
      <trkpt lat="36.3589900" lon="-5.2532920">
        <ele>46.6</ele>
        <time>2022-12-07T00:13:05Z</time>
      </trkpt>
      <trkpt lat="36.3590110" lon="-5.2532820">
        <ele>47.1</ele>
        <time>2022-12-07T00:13:45Z</time>
      </trkpt>
      <trkpt lat="36.3590340" lon="-5.2532750">
        <ele>47.5</ele>
        <time>2022-12-07T00:14:25Z</time>
      </trkpt>
      <trkpt lat="36.3590570" lon="-5.2532640">
        <ele>48.0</ele>
        <time>2022-12-07T00:15:05Z</time>
      </trkpt>
      <trkpt lat="36.3590780" lon="-5.2532540">
        <ele>48.4</ele>
        <time>2022-12-07T00:15:45Z</time>
      </trkpt>
      <trkpt lat="36.3591000" lon="-5.2532430">
        <ele>48.8</ele>
        <time>2022-12-07T00:16:25Z</time>
      </trkpt>
      <trkpt lat="36.3591210" lon="-5.2532330">
        <ele>49.2</ele>
        <time>2022-12-07T00:17:05Z</time>
      </trkpt>
      <trkpt lat="36.3591430" lon="-5.2532260">
        <ele>49.6</ele>
        <time>2022-12-07T00:17:45Z</time>
      </trkpt>
      <trkpt lat="36.3591630" lon="-5.2532170">
        <ele>49.9</ele>
        <time>2022-12-07T00:18:25Z</time>
      </trkpt>
      <trkpt lat="36.3591820" lon="-5.2532020">
        <ele>50.3</ele>
        <time>2022-12-07T00:19:05Z</time>
      </trkpt>
      <trkpt lat="36.3592000" lon="-5.2531850">
        <ele>50.5</ele>
        <time>2022-12-07T00:19:45Z</time>
      </trkpt>
      <trkpt lat="36.3592140" lon="-5.2531610">
        <ele>50.7</ele>
        <time>2022-12-07T00:20:25Z</time>
      </trkpt>
      <trkpt lat="36.3592280" lon="-5.2531290">
        <ele>50.9</ele>
        <time>2022-12-07T00:21:05Z</time>
      </trkpt>
      <trkpt lat="36.3592410" lon="-5.2530870">
        <ele>51.0</ele>
        <time>2022-12-07T00:21:45Z</time>
      </trkpt>
      <trkpt lat="36.3592490" lon="-5.2530320">
        <ele>51.0</ele>
        <time>2022-12-07T00:22:25Z</time>
      </trkpt>
      <trkpt lat="36.3592560" lon="-5.2529650">
        <ele>50.9</ele>
        <time>2022-12-07T00:23:05Z</time>
      </trkpt>
      <trkpt lat="36.3592550" lon="-5.2528950">
        <ele>50.7</ele>
        <time>2022-12-07T00:23:45Z</time>
      </trkpt>
      <trkpt lat="36.3592380" lon="-5.2528220">
        <ele>50.6</ele>
        <time>2022-12-07T00:24:25Z</time>
      </trkpt>
      <trkpt lat="36.3592120" lon="-5.2527570">
        <ele>50.5</ele>
        <time>2022-12-07T00:25:05Z</time>
      </trkpt>
      <trkpt lat="36.3591800" lon="-5.2527010">
        <ele>50.4</ele>
        <time>2022-12-07T00:25:45Z</time>
      </trkpt>
      <trkpt lat="36.3591400" lon="-5.2526650">
        <ele>50.4</ele>
        <time>2022-12-07T00:26:25Z</time>
      </trkpt>
      <trkpt lat="36.3590920" lon="-5.2526410">
        <ele>50.4</ele>
        <time>2022-12-07T00:27:05Z</time>
      </trkpt>
      <trkpt lat="36.3590450" lon="-5.2526280">
        <ele>50.3</ele>
        <time>2022-12-07T00:27:45Z</time>
      </trkpt>
      <trkpt lat="36.3590020" lon="-5.2526230">
        <ele>50.3</ele>
        <time>2022-12-07T00:28:25Z</time>
      </trkpt>
      <trkpt lat="36.3589620" lon="-5.2526230">
        <ele>50.4</ele>
        <time>2022-12-07T00:29:05Z</time>
      </trkpt>
      <trkpt lat="36.3589260" lon="-5.2526220">
        <ele>50.4</ele>
        <time>2022-12-07T00:29:45Z</time>
      </trkpt>
      <trkpt lat="36.3588900" lon="-5.2526220">
        <ele>50.5</ele>
        <time>2022-12-07T00:30:25Z</time>
      </trkpt>
      <trkpt lat="36.3588540" lon="-5.2526230">
        <ele>50.6</ele>
        <time>2022-12-07T00:31:05Z</time>
      </trkpt>
      <trkpt lat="36.3588200" lon="-5.2526260">
        <ele>50.8</ele>
        <time>2022-12-07T00:31:45Z</time>
      </trkpt>
      <trkpt lat="36.3587880" lon="-5.2526280">
        <ele>51.0</ele>
        <time>2022-12-07T00:32:25Z</time>
      </trkpt>
      <trkpt lat="36.3587560" lon="-5.2526320">
        <ele>51.2</ele>
        <time>2022-12-07T00:33:05Z</time>
      </trkpt>
      <trkpt lat="36.3587260" lon="-5.2526400">
        <ele>51.4</ele>
        <time>2022-12-07T00:33:45Z</time>
      </trkpt>
      <trkpt lat="36.3586970" lon="-5.2526500">
        <ele>51.6</ele>
        <time>2022-12-07T00:34:25Z</time>
      </trkpt>
      <trkpt lat="36.3586650" lon="-5.2526580">
        <ele>51.8</ele>
        <time>2022-12-07T00:35:05Z</time>
      </trkpt>
      <trkpt lat="36.3586340" lon="-5.2526640">
        <ele>52.1</ele>
        <time>2022-12-07T00:35:45Z</time>
      </trkpt>
      <trkpt lat="36.3586030" lon="-5.2526720">
        <ele>52.3</ele>
        <time>2022-12-07T00:36:25Z</time>
      </trkpt>
      <trkpt lat="36.3585720" lon="-5.2526840">
        <ele>52.6</ele>
        <time>2022-12-07T00:37:05Z</time>
      </trkpt>
      <trkpt lat="36.3585410" lon="-5.2526980">
        <ele>52.9</ele>
        <time>2022-12-07T00:37:45Z</time>
      </trkpt>
      <trkpt lat="36.3585070" lon="-5.2527100">
        <ele>53.2</ele>
        <time>2022-12-07T00:38:25Z</time>
      </trkpt>
      <trkpt lat="36.3584710" lon="-5.2527170">
        <ele>53.5</ele>
        <time>2022-12-07T00:39:05Z</time>
      </trkpt>
      <trkpt lat="36.3584380" lon="-5.2527190">
        <ele>53.8</ele>
        <time>2022-12-07T00:39:45Z</time>
      </trkpt>
      <trkpt lat="36.3584080" lon="-5.2527180">
        <ele>54.1</ele>
        <time>2022-12-07T00:40:25Z</time>
      </trkpt>
      <trkpt lat="36.3583800" lon="-5.2527170">
        <ele>54.4</ele>
        <time>2022-12-07T00:41:05Z</time>
      </trkpt>
      <trkpt lat="36.3583540" lon="-5.2527180">
        <ele>54.7</ele>
        <time>2022-12-07T00:41:45Z</time>
      </trkpt>
      <trkpt lat="36.3583240" lon="-5.2527160">
        <ele>55.0</ele>
        <time>2022-12-07T00:42:25Z</time>
      </trkpt>
      <trkpt lat="36.3582960" lon="-5.2527160">
        <ele>55.3</ele>
        <time>2022-12-07T00:43:05Z</time>
      </trkpt>
      <trkpt lat="36.3582680" lon="-5.2527130">
        <ele>55.6</ele>
        <time>2022-12-07T00:43:45Z</time>
      </trkpt>
      <trkpt lat="36.3582430" lon="-5.2527100">
        <ele>55.9</ele>
        <time>2022-12-07T00:44:25Z</time>
      </trkpt>
      <trkpt lat="36.3582170" lon="-5.2527020">
        <ele>56.2</ele>
        <time>2022-12-07T00:45:05Z</time>
      </trkpt>
      <trkpt lat="36.3581930" lon="-5.2526890">
        <ele>56.5</ele>
        <time>2022-12-07T00:45:45Z</time>
      </trkpt>
      <trkpt lat="36.3581700" lon="-5.2526770">
        <ele>56.8</ele>
        <time>2022-12-07T00:46:25Z</time>
      </trkpt>
      <trkpt lat="36.3581490" lon="-5.2526620">
        <ele>57.0</ele>
        <time>2022-12-07T00:47:05Z</time>
      </trkpt>
      <trkpt lat="36.3581270" lon="-5.2526380">
        <ele>57.4</ele>
        <time>2022-12-07T00:47:45Z</time>
      </trkpt>
      <trkpt lat="36.3581030" lon="-5.2526150">
        <ele>57.7</ele>
        <time>2022-12-07T00:48:25Z</time>
      </trkpt>
      <trkpt lat="36.3580810" lon="-5.2525900">
        <ele>58.1</ele>
        <time>2022-12-07T00:49:05Z</time>
      </trkpt>
      <trkpt lat="36.3580610" lon="-5.2525630">
        <ele>58.4</ele>
        <time>2022-12-07T00:49:45Z</time>
      </trkpt>
      <trkpt lat="36.3580410" lon="-5.2525370">
        <ele>58.7</ele>
        <time>2022-12-07T00:50:25Z</time>
      </trkpt>
      <trkpt lat="36.3580200" lon="-5.2525100">
        <ele>59.0</ele>
        <time>2022-12-07T00:51:05Z</time>
      </trkpt>
      <trkpt lat="36.3580010" lon="-5.2524810">
        <ele>59.4</ele>
        <time>2022-12-07T00:51:45Z</time>
      </trkpt>
      <trkpt lat="36.3579830" lon="-5.2524510">
        <ele>59.7</ele>
        <time>2022-12-07T00:52:25Z</time>
      </trkpt>
      <trkpt lat="36.3579680" lon="-5.2524230">
        <ele>60.0</ele>
        <time>2022-12-07T00:53:05Z</time>
      </trkpt>
      <trkpt lat="36.3579560" lon="-5.2523950">
        <ele>60.3</ele>
        <time>2022-12-07T00:53:45Z</time>
      </trkpt>
      <trkpt lat="36.3579450" lon="-5.2523670">
        <ele>60.6</ele>
        <time>2022-12-07T00:54:25Z</time>
      </trkpt>
      <trkpt lat="36.3579340" lon="-5.2523420">
        <ele>60.9</ele>
        <time>2022-12-07T00:55:05Z</time>
      </trkpt>
      <trkpt lat="36.3579240" lon="-5.2523180">
        <ele>61.2</ele>
        <time>2022-12-07T00:55:45Z</time>
      </trkpt>
      <trkpt lat="36.3579150" lon="-5.2522920">
        <ele>61.5</ele>
        <time>2022-12-07T00:56:25Z</time>
      </trkpt>
      <trkpt lat="36.3579070" lon="-5.2522680">
        <ele>61.8</ele>
        <time>2022-12-07T00:57:05Z</time>
      </trkpt>
      <trkpt lat="36.3578980" lon="-5.2522440">
        <ele>62.1</ele>
        <time>2022-12-07T00:57:45Z</time>
      </trkpt>
      <trkpt lat="36.3578880" lon="-5.2522190">
        <ele>62.5</ele>
        <time>2022-12-07T00:58:25Z</time>
      </trkpt>
      <trkpt lat="36.3578780" lon="-5.2521930">
        <ele>62.8</ele>
        <time>2022-12-07T00:59:05Z</time>
      </trkpt>
      <trkpt lat="36.3578710" lon="-5.2521670">
        <ele>63.2</ele>
        <time>2022-12-07T00:59:45Z</time>
      </trkpt>
      <trkpt lat="36.3578640" lon="-5.2521420">
        <ele>63.6</ele>
        <time>2022-12-07T01:00:25Z</time>
      </trkpt>
      <trkpt lat="36.3578580" lon="-5.2521180">
        <ele>63.9</ele>
        <time>2022-12-07T01:01:05Z</time>
      </trkpt>
      <trkpt lat="36.3578510" lon="-5.2520950">
        <ele>64.3</ele>
        <time>2022-12-07T01:01:45Z</time>
      </trkpt>
      <trkpt lat="36.3578430" lon="-5.2520700">
        <ele>64.7</ele>
        <time>2022-12-07T01:02:25Z</time>
      </trkpt>
      <trkpt lat="36.3578370" lon="-5.2520430">
        <ele>65.2</ele>
        <time>2022-12-07T01:03:05Z</time>
      </trkpt>
      <trkpt lat="36.3578310" lon="-5.2520170">
        <ele>65.6</ele>
        <time>2022-12-07T01:03:45Z</time>
      </trkpt>
      <trkpt lat="36.3578230" lon="-5.2519930">
        <ele>66.0</ele>
        <time>2022-12-07T01:04:25Z</time>
      </trkpt>
      <trkpt lat="36.3578170" lon="-5.2519680">
        <ele>66.5</ele>
        <time>2022-12-07T01:05:05Z</time>
      </trkpt>
      <trkpt lat="36.3578100" lon="-5.2519400">
        <ele>66.9</ele>
        <time>2022-12-07T01:05:45Z</time>
      </trkpt>
      <trkpt lat="36.3578040" lon="-5.2519130">
        <ele>67.4</ele>
        <time>2022-12-07T01:06:25Z</time>
      </trkpt>
      <trkpt lat="36.3577980" lon="-5.2518840">
        <ele>67.9</ele>
        <time>2022-12-07T01:07:05Z</time>
      </trkpt>
      <trkpt lat="36.3577920" lon="-5.2518580">
        <ele>68.3</ele>
        <time>2022-12-07T01:07:45Z</time>
      </trkpt>
      <trkpt lat="36.3577870" lon="-5.2518340">
        <ele>68.7</ele>
        <time>2022-12-07T01:08:25Z</time>
      </trkpt>
      <trkpt lat="36.3577850" lon="-5.2518090">
        <ele>69.1</ele>
        <time>2022-12-07T01:09:05Z</time>
      </trkpt>
      <trkpt lat="36.3577830" lon="-5.2517810">
        <ele>69.5</ele>
        <time>2022-12-07T01:09:45Z</time>
      </trkpt>
      <trkpt lat="36.3577810" lon="-5.2517520">
        <ele>69.9</ele>
        <time>2022-12-07T01:10:25Z</time>
      </trkpt>
      <trkpt lat="36.3577800" lon="-5.2517230">
        <ele>70.3</ele>
        <time>2022-12-07T01:11:05Z</time>
      </trkpt>
      <trkpt lat="36.3577780" lon="-5.2516930">
        <ele>70.7</ele>
        <time>2022-12-07T01:11:45Z</time>
      </trkpt>
      <trkpt lat="36.3577780" lon="-5.2516630">
        <ele>71.1</ele>
        <time>2022-12-07T01:12:25Z</time>
      </trkpt>
      <trkpt lat="36.3577800" lon="-5.2516320">
        <ele>71.5</ele>
        <time>2022-12-07T01:13:05Z</time>
      </trkpt>
      <trkpt lat="36.3577850" lon="-5.2516000">
        <ele>72.3</ele>
        <time>2022-12-07T01:13:45Z</time>
      </trkpt>
      <trkpt lat="36.3577980" lon="-5.2515660">
        <ele>72.6</ele>
        <time>2022-12-07T01:14:25Z</time>
      </trkpt>
      <trkpt lat="36.3578140" lon="-5.2515500">
        <ele>72.8</ele>
        <time>2022-12-07T01:15:05Z</time>
      </trkpt>
      <trkpt lat="36.3578370" lon="-5.2515340">
        <ele>73.1</ele>
        <time>2022-12-07T01:15:45Z</time>
      </trkpt>
      <trkpt lat="36.3578700" lon="-5.2515200">
        <ele>73.4</ele>
        <time>2022-12-07T01:16:25Z</time>
      </trkpt>
      <trkpt lat="36.3578940" lon="-5.2515150">
        <ele>73.7</ele>
        <time>2022-12-07T01:17:05Z</time>
      </trkpt>
      <trkpt lat="36.3579240" lon="-5.2515160">
        <ele>73.9</ele>
        <time>2022-12-07T01:17:45Z</time>
      </trkpt>
      <trkpt lat="36.3579520" lon="-5.2515140">
        <ele>74.2</ele>
        <time>2022-12-07T01:18:25Z</time>
      </trkpt>
      <trkpt lat="36.3579810" lon="-5.2515130">
        <ele>74.4</ele>
        <time>2022-12-07T01:19:05Z</time>
      </trkpt>
      <trkpt lat="36.3580090" lon="-5.2515120">
        <ele>74.7</ele>
        <time>2022-12-07T01:19:45Z</time>
      </trkpt>
      <trkpt lat="36.3580380" lon="-5.2515080">
        <ele>74.9</ele>
        <time>2022-12-07T01:20:25Z</time>
      </trkpt>
      <trkpt lat="36.3580670" lon="-5.2515000">
        <ele>75.2</ele>
        <time>2022-12-07T01:21:05Z</time>
      </trkpt>
      <trkpt lat="36.3580990" lon="-5.2514900">
        <ele>75.5</ele>
        <time>2022-12-07T01:21:45Z</time>
      </trkpt>
      <trkpt lat="36.3581300" lon="-5.2514840">
        <ele>75.8</ele>
        <time>2022-12-07T01:22:25Z</time>
      </trkpt>
      <trkpt lat="36.3581590" lon="-5.2514780">
        <ele>76.1</ele>
        <time>2022-12-07T01:23:05Z</time>
      </trkpt>
      <trkpt lat="36.3581930" lon="-5.2514690">
        <ele>76.4</ele>
        <time>2022-12-07T01:23:45Z</time>
      </trkpt>
      <trkpt lat="36.3582160" lon="-5.2514620">
        <ele>76.6</ele>
        <time>2022-12-07T01:24:25Z</time>
      </trkpt>
      <trkpt lat="36.3582450" lon="-5.2514560">
        <ele>76.9</ele>
        <time>2022-12-07T01:25:05Z</time>
      </trkpt>
      <trkpt lat="36.3582730" lon="-5.2514510">
        <ele>77.1</ele>
        <time>2022-12-07T01:25:45Z</time>
      </trkpt>
      <trkpt lat="36.3583060" lon="-5.2514420">
        <ele>77.5</ele>
        <time>2022-12-07T01:26:25Z</time>
      </trkpt>
      <trkpt lat="36.3583310" lon="-5.2514360">
        <ele>77.7</ele>
        <time>2022-12-07T01:27:05Z</time>
      </trkpt>
      <trkpt lat="36.3583630" lon="-5.2514280">
        <ele>78.0</ele>
        <time>2022-12-07T01:27:45Z</time>
      </trkpt>
      <trkpt lat="36.3583950" lon="-5.2514140">
        <ele>78.3</ele>
        <time>2022-12-07T01:28:25Z</time>
      </trkpt>
      <trkpt lat="36.3584230" lon="-5.2513970">
        <ele>78.6</ele>
        <time>2022-12-07T01:29:05Z</time>
      </trkpt>
      <trkpt lat="36.3584540" lon="-5.2513840">
        <ele>78.9</ele>
        <time>2022-12-07T01:29:45Z</time>
      </trkpt>
      <trkpt lat="36.3584880" lon="-5.2513660">
        <ele>79.2</ele>
        <time>2022-12-07T01:30:25Z</time>
      </trkpt>
      <trkpt lat="36.3585110" lon="-5.2513520">
        <ele>79.4</ele>
        <time>2022-12-07T01:31:05Z</time>
      </trkpt>
      <trkpt lat="36.3585390" lon="-5.2513330">
        <ele>79.6</ele>
        <time>2022-12-07T01:31:45Z</time>
      </trkpt>
      <trkpt lat="36.3585670" lon="-5.2513120">
        <ele>79.8</ele>
        <time>2022-12-07T01:32:25Z</time>
      </trkpt>
      <trkpt lat="36.3585950" lon="-5.2512870">
        <ele>80.0</ele>
        <time>2022-12-07T01:33:05Z</time>
      </trkpt>
      <trkpt lat="36.3586260" lon="-5.2512600">
        <ele>80.2</ele>
        <time>2022-12-07T01:33:45Z</time>
      </trkpt>
      <trkpt lat="36.3586540" lon="-5.2512310">
        <ele>80.4</ele>
        <time>2022-12-07T01:34:25Z</time>
      </trkpt>
      <trkpt lat="36.3586810" lon="-5.2512000">
        <ele>80.5</ele>
        <time>2022-12-07T01:35:05Z</time>
      </trkpt>
      <trkpt lat="36.3587090" lon="-5.2511700">
        <ele>80.7</ele>
        <time>2022-12-07T01:35:45Z</time>
      </trkpt>
      <trkpt lat="36.3587400" lon="-5.2511420">
        <ele>80.9</ele>
        <time>2022-12-07T01:36:25Z</time>
      </trkpt>
      <trkpt lat="36.3587700" lon="-5.2511110">
        <ele>81.1</ele>
        <time>2022-12-07T01:37:05Z</time>
      </trkpt>
      <trkpt lat="36.3588010" lon="-5.2510860">
        <ele>81.2</ele>
        <time>2022-12-07T01:37:45Z</time>
      </trkpt>
      <trkpt lat="36.3588340" lon="-5.2510660">
        <ele>81.4</ele>
        <time>2022-12-07T01:38:25Z</time>
      </trkpt>
      <trkpt lat="36.3588650" lon="-5.2510430">
        <ele>81.6</ele>
        <time>2022-12-07T01:39:05Z</time>
      </trkpt>
      <trkpt lat="36.3588940" lon="-5.2510140">
        <ele>81.8</ele>
        <time>2022-12-07T01:39:45Z</time>
      </trkpt>
      <trkpt lat="36.3589230" lon="-5.2509870">
        <ele>81.9</ele>
        <time>2022-12-07T01:40:25Z</time>
      </trkpt>
      <trkpt lat="36.3589510" lon="-5.2509590">
        <ele>82.1</ele>
        <time>2022-12-07T01:41:05Z</time>
      </trkpt>
      <trkpt lat="36.3589800" lon="-5.2509310">
        <ele>82.2</ele>
        <time>2022-12-07T01:41:45Z</time>
      </trkpt>
      <trkpt lat="36.3590090" lon="-5.2508970">
        <ele>82.2</ele>
        <time>2022-12-07T01:42:25Z</time>
      </trkpt>
      <trkpt lat="36.3590390" lon="-5.2508630">
        <ele>82.3</ele>
        <time>2022-12-07T01:43:05Z</time>
      </trkpt>
      <trkpt lat="36.3590670" lon="-5.2508270">
        <ele>82.4</ele>
        <time>2022-12-07T01:43:45Z</time>
      </trkpt>
      <trkpt lat="36.3590880" lon="-5.2507950">
        <ele>82.4</ele>
        <time>2022-12-07T01:44:25Z</time>
      </trkpt>
      <trkpt lat="36.3591070" lon="-5.2507580">
        <ele>82.5</ele>
        <time>2022-12-07T01:45:05Z</time>
      </trkpt>
      <trkpt lat="36.3591240" lon="-5.2507160">
        <ele>82.5</ele>
        <time>2022-12-07T01:45:45Z</time>
      </trkpt>
      <trkpt lat="36.3591450" lon="-5.2506730">
        <ele>82.5</ele>
        <time>2022-12-07T01:46:25Z</time>
      </trkpt>
      <trkpt lat="36.3591660" lon="-5.2506300">
        <ele>82.5</ele>
        <time>2022-12-07T01:47:05Z</time>
      </trkpt>
      <trkpt lat="36.3591910" lon="-5.2505880">
        <ele>82.5</ele>
        <time>2022-12-07T01:47:45Z</time>
      </trkpt>
      <trkpt lat="36.3592190" lon="-5.2505430">
        <ele>82.5</ele>
        <time>2022-12-07T01:48:25Z</time>
      </trkpt>
      <trkpt lat="36.3592500" lon="-5.2504970">
        <ele>82.5</ele>
        <time>2022-12-07T01:49:05Z</time>
      </trkpt>
      <trkpt lat="36.3592820" lon="-5.2504530">
        <ele>82.6</ele>
        <time>2022-12-07T01:49:45Z</time>
      </trkpt>
      <trkpt lat="36.3593130" lon="-5.2504100">
        <ele>82.6</ele>
        <time>2022-12-07T01:50:25Z</time>
      </trkpt>
      <trkpt lat="36.3593420" lon="-5.2503660">
        <ele>82.7</ele>
        <time>2022-12-07T01:51:05Z</time>
      </trkpt>
      <trkpt lat="36.3593700" lon="-5.2503220">
        <ele>82.8</ele>
        <time>2022-12-07T01:51:45Z</time>
      </trkpt>
      <trkpt lat="36.3593970" lon="-5.2502770">
        <ele>82.9</ele>
        <time>2022-12-07T01:52:25Z</time>
      </trkpt>
      <trkpt lat="36.3594240" lon="-5.2502340">
        <ele>83.0</ele>
        <time>2022-12-07T01:53:05Z</time>
      </trkpt>
      <trkpt lat="36.3594530" lon="-5.2501910">
        <ele>83.1</ele>
        <time>2022-12-07T01:53:45Z</time>
      </trkpt>
      <trkpt lat="36.3594760" lon="-5.2501460">
        <ele>83.2</ele>
        <time>2022-12-07T01:54:25Z</time>
      </trkpt>
      <trkpt lat="36.3594980" lon="-5.2501000">
        <ele>83.4</ele>
        <time>2022-12-07T01:55:05Z</time>
      </trkpt>
      <trkpt lat="36.3595220" lon="-5.2500580">
        <ele>83.6</ele>
        <time>2022-12-07T01:55:45Z</time>
      </trkpt>
      <trkpt lat="36.3595500" lon="-5.2500210">
        <ele>83.8</ele>
        <time>2022-12-07T01:56:25Z</time>
      </trkpt>
      <trkpt lat="36.3595740" lon="-5.2499850">
        <ele>84.0</ele>
        <time>2022-12-07T01:57:05Z</time>
      </trkpt>
      <trkpt lat="36.3595970" lon="-5.2499480">
        <ele>84.2</ele>
        <time>2022-12-07T01:57:45Z</time>
      </trkpt>
      <trkpt lat="36.3596170" lon="-5.2499090">
        <ele>84.5</ele>
        <time>2022-12-07T01:58:25Z</time>
      </trkpt>
      <trkpt lat="36.3596370" lon="-5.2498710">
        <ele>84.7</ele>
        <time>2022-12-07T01:59:05Z</time>
      </trkpt>
      <trkpt lat="36.3596590" lon="-5.2498370">
        <ele>85.0</ele>
        <time>2022-12-07T01:59:45Z</time>
      </trkpt>
      <trkpt lat="36.3596800" lon="-5.2498020">
        <ele>85.2</ele>
        <time>2022-12-07T02:00:25Z</time>
      </trkpt>
      <trkpt lat="36.3597060" lon="-5.2497610">
        <ele>85.6</ele>
        <time>2022-12-07T02:01:05Z</time>
      </trkpt>
      <trkpt lat="36.3597320" lon="-5.2497210">
        <ele>85.9</ele>
        <time>2022-12-07T02:01:45Z</time>
      </trkpt>
      <trkpt lat="36.3597620" lon="-5.2496850">
        <ele>86.2</ele>
        <time>2022-12-07T02:02:25Z</time>
      </trkpt>
      <trkpt lat="36.3597930" lon="-5.2496500">
        <ele>86.5</ele>
        <time>2022-12-07T02:03:05Z</time>
      </trkpt>
      <trkpt lat="36.3598190" lon="-5.2496120">
        <ele>86.8</ele>
        <time>2022-12-07T02:03:45Z</time>
      </trkpt>
      <trkpt lat="36.3598480" lon="-5.2495750">
        <ele>87.1</ele>
        <time>2022-12-07T02:04:25Z</time>
      </trkpt>
      <trkpt lat="36.3598780" lon="-5.2495410">
        <ele>87.3</ele>
        <time>2022-12-07T02:05:05Z</time>
      </trkpt>
      <trkpt lat="36.3599100" lon="-5.2495060">
        <ele>87.6</ele>
        <time>2022-12-07T02:05:45Z</time>
      </trkpt>
      <trkpt lat="36.3599470" lon="-5.2494770">
        <ele>87.8</ele>
        <time>2022-12-07T02:06:25Z</time>
      </trkpt>
      <trkpt lat="36.3599860" lon="-5.2494490">
        <ele>88.1</ele>
        <time>2022-12-07T02:07:05Z</time>
      </trkpt>
      <trkpt lat="36.3600270" lon="-5.2494230">
        <ele>88.3</ele>
        <time>2022-12-07T02:07:45Z</time>
      </trkpt>
      <trkpt lat="36.3600680" lon="-5.2493960">
        <ele>88.5</ele>
        <time>2022-12-07T02:08:25Z</time>
      </trkpt>
      <trkpt lat="36.3601060" lon="-5.2493660">
        <ele>88.8</ele>
        <time>2022-12-07T02:09:05Z</time>
      </trkpt>
      <trkpt lat="36.3601420" lon="-5.2493330">
        <ele>89.0</ele>
        <time>2022-12-07T02:09:45Z</time>
      </trkpt>
      <trkpt lat="36.3601800" lon="-5.2493040">
        <ele>89.2</ele>
        <time>2022-12-07T02:10:25Z</time>
      </trkpt>
      <trkpt lat="36.3602180" lon="-5.2492730">
        <ele>89.3</ele>
        <time>2022-12-07T02:11:05Z</time>
      </trkpt>
      <trkpt lat="36.3602550" lon="-5.2492420">
        <ele>89.5</ele>
        <time>2022-12-07T02:11:45Z</time>
      </trkpt>
      <trkpt lat="36.3602920" lon="-5.2492100">
        <ele>89.7</ele>
        <time>2022-12-07T02:12:25Z</time>
      </trkpt>
      <trkpt lat="36.3603300" lon="-5.2491810">
        <ele>89.9</ele>
        <time>2022-12-07T02:13:05Z</time>
      </trkpt>
      <trkpt lat="36.3603650" lon="-5.2491500">
        <ele>90.1</ele>
        <time>2022-12-07T02:13:45Z</time>
      </trkpt>
      <trkpt lat="36.3603980" lon="-5.2491190">
        <ele>90.3</ele>
        <time>2022-12-07T02:14:25Z</time>
      </trkpt>
      <trkpt lat="36.3604340" lon="-5.2490920">
        <ele>90.5</ele>
        <time>2022-12-07T02:15:05Z</time>
      </trkpt>
      <trkpt lat="36.3604730" lon="-5.2490670">
        <ele>90.6</ele>
        <time>2022-12-07T02:15:45Z</time>
      </trkpt>
      <trkpt lat="36.3605120" lon="-5.2490400">
        <ele>90.8</ele>
        <time>2022-12-07T02:16:25Z</time>
      </trkpt>
      <trkpt lat="36.3605470" lon="-5.2490110">
        <ele>91.0</ele>
        <time>2022-12-07T02:17:05Z</time>
      </trkpt>
      <trkpt lat="36.3605850" lon="-5.2489820">
        <ele>91.2</ele>
        <time>2022-12-07T02:17:45Z</time>
      </trkpt>
      <trkpt lat="36.3606250" lon="-5.2489500">
        <ele>91.4</ele>
        <time>2022-12-07T02:18:25Z</time>
      </trkpt>
      <trkpt lat="36.3606590" lon="-5.2489090">
        <ele>91.6</ele>
        <time>2022-12-07T02:19:05Z</time>
      </trkpt>
      <trkpt lat="36.3606880" lon="-5.2488600">
        <ele>91.8</ele>
        <time>2022-12-07T02:19:45Z</time>
      </trkpt>
      <trkpt lat="36.3607090" lon="-5.2488060">
        <ele>91.9</ele>
        <time>2022-12-07T02:20:25Z</time>
      </trkpt>
      <trkpt lat="36.3607260" lon="-5.2487530">
        <ele>92.2</ele>
        <time>2022-12-07T02:21:05Z</time>
      </trkpt>
      <trkpt lat="36.3607400" lon="-5.2487050">
        <ele>92.3</ele>
        <time>2022-12-07T02:21:45Z</time>
      </trkpt>
      <trkpt lat="36.3607580" lon="-5.2486610">
        <ele>92.5</ele>
        <time>2022-12-07T02:22:25Z</time>
      </trkpt>
      <trkpt lat="36.3607800" lon="-5.2486210">
        <ele>92.7</ele>
        <time>2022-12-07T02:23:05Z</time>
      </trkpt>
      <trkpt lat="36.3608060" lon="-5.2485810">
        <ele>93.0</ele>
        <time>2022-12-07T02:23:45Z</time>
      </trkpt>
      <trkpt lat="36.3608290" lon="-5.2485370">
        <ele>93.2</ele>
        <time>2022-12-07T02:24:25Z</time>
      </trkpt>
      <trkpt lat="36.3608500" lon="-5.2484900">
        <ele>93.5</ele>
        <time>2022-12-07T02:25:05Z</time>
      </trkpt>
      <trkpt lat="36.3608680" lon="-5.2484410">
        <ele>93.7</ele>
        <time>2022-12-07T02:25:45Z</time>
      </trkpt>
      <trkpt lat="36.3608770" lon="-5.2483920">
        <ele>94.0</ele>
        <time>2022-12-07T02:26:25Z</time>
      </trkpt>
      <trkpt lat="36.3608840" lon="-5.2483440">
        <ele>94.3</ele>
        <time>2022-12-07T02:27:05Z</time>
      </trkpt>
      <trkpt lat="36.3608920" lon="-5.2483020">
        <ele>94.6</ele>
        <time>2022-12-07T02:27:45Z</time>
      </trkpt>
      <trkpt lat="36.3608990" lon="-5.2482650">
        <ele>94.8</ele>
        <time>2022-12-07T02:28:25Z</time>
      </trkpt>
      <trkpt lat="36.3609090" lon="-5.2482300">
        <ele>95.0</ele>
        <time>2022-12-07T02:29:05Z</time>
      </trkpt>
      <trkpt lat="36.3609210" lon="-5.2481950">
        <ele>95.2</ele>
        <time>2022-12-07T02:29:45Z</time>
      </trkpt>
      <trkpt lat="36.3609350" lon="-5.2481600">
        <ele>95.5</ele>
        <time>2022-12-07T02:30:25Z</time>
      </trkpt>
      <trkpt lat="36.3609520" lon="-5.2481240">
        <ele>95.7</ele>
        <time>2022-12-07T02:31:05Z</time>
      </trkpt>
      <trkpt lat="36.3609730" lon="-5.2480870">
        <ele>95.9</ele>
        <time>2022-12-07T02:31:45Z</time>
      </trkpt>
      <trkpt lat="36.3609950" lon="-5.2480490">
        <ele>96.1</ele>
        <time>2022-12-07T02:32:25Z</time>
      </trkpt>
      <trkpt lat="36.3610210" lon="-5.2480160">
        <ele>96.3</ele>
        <time>2022-12-07T02:33:05Z</time>
      </trkpt>
      <trkpt lat="36.3610500" lon="-5.2479840">
        <ele>96.5</ele>
        <time>2022-12-07T02:33:45Z</time>
      </trkpt>
      <trkpt lat="36.3610820" lon="-5.2479560">
        <ele>96.7</ele>
        <time>2022-12-07T02:34:25Z</time>
      </trkpt>
      <trkpt lat="36.3611190" lon="-5.2479340">
        <ele>96.9</ele>
        <time>2022-12-07T02:35:05Z</time>
      </trkpt>
      <trkpt lat="36.3611580" lon="-5.2479090">
        <ele>97.1</ele>
        <time>2022-12-07T02:35:45Z</time>
      </trkpt>
      <trkpt lat="36.3611900" lon="-5.2478720">
        <ele>97.3</ele>
        <time>2022-12-07T02:36:25Z</time>
      </trkpt>
      <trkpt lat="36.3612200" lon="-5.2478360">
        <ele>97.5</ele>
        <time>2022-12-07T02:37:05Z</time>
      </trkpt>
      <trkpt lat="36.3612560" lon="-5.2478100">
        <ele>97.7</ele>
        <time>2022-12-07T02:37:45Z</time>
      </trkpt>
      <trkpt lat="36.3612910" lon="-5.2477920">
        <ele>97.9</ele>
        <time>2022-12-07T02:38:25Z</time>
      </trkpt>
      <trkpt lat="36.3613230" lon="-5.2477700">
        <ele>98.2</ele>
        <time>2022-12-07T02:39:05Z</time>
      </trkpt>
      <trkpt lat="36.3613470" lon="-5.2477400">
        <ele>98.4</ele>
        <time>2022-12-07T02:39:45Z</time>
      </trkpt>
      <trkpt lat="36.3613630" lon="-5.2477050">
        <ele>98.7</ele>
        <time>2022-12-07T02:40:25Z</time>
      </trkpt>
      <trkpt lat="36.3613750" lon="-5.2476710">
        <ele>98.9</ele>
        <time>2022-12-07T02:41:05Z</time>
      </trkpt>
      <trkpt lat="36.3613870" lon="-5.2476400">
        <ele>99.2</ele>
        <time>2022-12-07T02:41:45Z</time>
      </trkpt>
      <trkpt lat="36.3614000" lon="-5.2476100">
        <ele>99.5</ele>
        <time>2022-12-07T02:42:25Z</time>
      </trkpt>
      <trkpt lat="36.3614130" lon="-5.2475810">
        <ele>99.8</ele>
        <time>2022-12-07T02:43:05Z</time>
      </trkpt>
      <trkpt lat="36.3614240" lon="-5.2475520">
        <ele>100.0</ele>
        <time>2022-12-07T02:43:45Z</time>
      </trkpt>
      <trkpt lat="36.3614370" lon="-5.2475250">
        <ele>100.3</ele>
        <time>2022-12-07T02:44:25Z</time>
      </trkpt>
      <trkpt lat="36.3614490" lon="-5.2474950">
        <ele>100.6</ele>
        <time>2022-12-07T02:45:05Z</time>
      </trkpt>
      <trkpt lat="36.3614610" lon="-5.2474640">
        <ele>101.0</ele>
        <time>2022-12-07T02:45:45Z</time>
      </trkpt>
      <trkpt lat="36.3614710" lon="-5.2474330">
        <ele>101.3</ele>
        <time>2022-12-07T02:46:25Z</time>
      </trkpt>
      <trkpt lat="36.3614790" lon="-5.2473980">
        <ele>101.6</ele>
        <time>2022-12-07T02:47:05Z</time>
      </trkpt>
      <trkpt lat="36.3614890" lon="-5.2473620">
        <ele>102.0</ele>
        <time>2022-12-07T02:47:45Z</time>
      </trkpt>
      <trkpt lat="36.3615010" lon="-5.2473290">
        <ele>102.3</ele>
        <time>2022-12-07T02:48:25Z</time>
      </trkpt>
      <trkpt lat="36.3615110" lon="-5.2472970">
        <ele>102.6</ele>
        <time>2022-12-07T02:49:05Z</time>
      </trkpt>
      <trkpt lat="36.3615210" lon="-5.2472650">
        <ele>103.0</ele>
        <time>2022-12-07T02:49:45Z</time>
      </trkpt>
      <trkpt lat="36.3615320" lon="-5.2472360">
        <ele>103.3</ele>
        <time>2022-12-07T02:50:25Z</time>
      </trkpt>
      <trkpt lat="36.3615460" lon="-5.2472090">
        <ele>103.6</ele>
        <time>2022-12-07T02:51:05Z</time>
      </trkpt>
      <trkpt lat="36.3615570" lon="-5.2471780">
        <ele>103.9</ele>
        <time>2022-12-07T02:51:45Z</time>
      </trkpt>
      <trkpt lat="36.3615690" lon="-5.2471440">
        <ele>104.2</ele>
        <time>2022-12-07T02:52:25Z</time>
      </trkpt>
      <trkpt lat="36.3615790" lon="-5.2471080">
        <ele>104.6</ele>
        <time>2022-12-07T02:53:05Z</time>
      </trkpt>
      <trkpt lat="36.3615890" lon="-5.2470710">
        <ele>104.9</ele>
        <time>2022-12-07T02:53:45Z</time>
      </trkpt>
      <trkpt lat="36.3616030" lon="-5.2470310">
        <ele>105.2</ele>
        <time>2022-12-07T02:54:25Z</time>
      </trkpt>
      <trkpt lat="36.3616170" lon="-5.2469890">
        <ele>105.6</ele>
        <time>2022-12-07T02:55:05Z</time>
      </trkpt>
      <trkpt lat="36.3616270" lon="-5.2469510">
        <ele>105.9</ele>
        <time>2022-12-07T02:55:45Z</time>
      </trkpt>
      <trkpt lat="36.3616360" lon="-5.2469130">
        <ele>106.3</ele>
        <time>2022-12-07T02:56:25Z</time>
      </trkpt>
      <trkpt lat="36.3616400" lon="-5.2468760">
        <ele>106.6</ele>
        <time>2022-12-07T02:57:05Z</time>
      </trkpt>
      <trkpt lat="36.3616390" lon="-5.2468400">
        <ele>106.0</ele>
        <time>2022-12-07T02:57:45Z</time>
      </trkpt>
      <trkpt lat="36.3616450" lon="-5.2468070">
        <ele>105.8</ele>
        <time>2022-12-07T02:58:25Z</time>
      </trkpt>
      <trkpt lat="36.3616620" lon="-5.2467850">
        <ele>105.7</ele>
        <time>2022-12-07T02:59:05Z</time>
      </trkpt>
      <trkpt lat="36.3616860" lon="-5.2467790">
        <ele>107.2</ele>
        <time>2022-12-07T02:59:45Z</time>
      </trkpt>
      <trkpt lat="36.3617130" lon="-5.2467910">
        <ele>107.5</ele>
        <time>2022-12-07T03:00:25Z</time>
      </trkpt>
      <trkpt lat="36.3617370" lon="-5.2468110">
        <ele>107.7</ele>
        <time>2022-12-07T03:01:05Z</time>
      </trkpt>
      <trkpt lat="36.3617600" lon="-5.2468390">
        <ele>107.9</ele>
        <time>2022-12-07T03:01:45Z</time>
      </trkpt>
      <trkpt lat="36.3617830" lon="-5.2468700">
        <ele>108.2</ele>
        <time>2022-12-07T03:02:25Z</time>
      </trkpt>
      <trkpt lat="36.3618050" lon="-5.2469030">
        <ele>108.5</ele>
        <time>2022-12-07T03:03:05Z</time>
      </trkpt>
      <trkpt lat="36.3618280" lon="-5.2469340">
        <ele>108.7</ele>
        <time>2022-12-07T03:03:45Z</time>
      </trkpt>
      <trkpt lat="36.3618510" lon="-5.2469660">
        <ele>109.0</ele>
        <time>2022-12-07T03:04:25Z</time>
      </trkpt>
      <trkpt lat="36.3618760" lon="-5.2469980">
        <ele>109.2</ele>
        <time>2022-12-07T03:05:05Z</time>
      </trkpt>
      <trkpt lat="36.3619020" lon="-5.2470280">
        <ele>109.5</ele>
        <time>2022-12-07T03:05:45Z</time>
      </trkpt>
      <trkpt lat="36.3619250" lon="-5.2470570">
        <ele>109.7</ele>
        <time>2022-12-07T03:06:25Z</time>
      </trkpt>
      <trkpt lat="36.3619480" lon="-5.2470860">
        <ele>109.9</ele>
        <time>2022-12-07T03:07:05Z</time>
      </trkpt>
      <trkpt lat="36.3619710" lon="-5.2471190">
        <ele>110.2</ele>
        <time>2022-12-07T03:07:45Z</time>
      </trkpt>
      <trkpt lat="36.3619930" lon="-5.2471510">
        <ele>110.4</ele>
        <time>2022-12-07T03:08:25Z</time>
      </trkpt>
      <trkpt lat="36.3620190" lon="-5.2471840">
        <ele>110.6</ele>
        <time>2022-12-07T03:09:05Z</time>
      </trkpt>
      <trkpt lat="36.3620440" lon="-5.2472130">
        <ele>110.8</ele>
        <time>2022-12-07T03:09:45Z</time>
      </trkpt>
      <trkpt lat="36.3620680" lon="-5.2472450">
        <ele>111.0</ele>
        <time>2022-12-07T03:10:25Z</time>
      </trkpt>
      <trkpt lat="36.3620930" lon="-5.2472760">
        <ele>111.2</ele>
        <time>2022-12-07T03:11:05Z</time>
      </trkpt>
      <trkpt lat="36.3621200" lon="-5.2473080">
        <ele>111.4</ele>
        <time>2022-12-07T03:11:45Z</time>
      </trkpt>
      <trkpt lat="36.3621480" lon="-5.2473400">
        <ele>111.7</ele>
        <time>2022-12-07T03:12:25Z</time>
      </trkpt>
      <trkpt lat="36.3621740" lon="-5.2473730">
        <ele>111.9</ele>
        <time>2022-12-07T03:13:05Z</time>
      </trkpt>
      <trkpt lat="36.3621990" lon="-5.2474070">
        <ele>112.1</ele>
        <time>2022-12-07T03:13:45Z</time>
      </trkpt>
      <trkpt lat="36.3622280" lon="-5.2474370">
        <ele>112.3</ele>
        <time>2022-12-07T03:14:25Z</time>
      </trkpt>
      <trkpt lat="36.3622550" lon="-5.2474670">
        <ele>112.5</ele>
        <time>2022-12-07T03:15:05Z</time>
      </trkpt>
      <trkpt lat="36.3622810" lon="-5.2474980">
        <ele>112.7</ele>
        <time>2022-12-07T03:15:45Z</time>
      </trkpt>
      <trkpt lat="36.3623080" lon="-5.2475290">
        <ele>112.9</ele>
        <time>2022-12-07T03:16:25Z</time>
      </trkpt>
      <trkpt lat="36.3623360" lon="-5.2475590">
        <ele>113.1</ele>
        <time>2022-12-07T03:17:05Z</time>
      </trkpt>
      <trkpt lat="36.3623640" lon="-5.2475880">
        <ele>113.3</ele>
        <time>2022-12-07T03:17:45Z</time>
      </trkpt>
      <trkpt lat="36.3623890" lon="-5.2476200">
        <ele>113.5</ele>
        <time>2022-12-07T03:18:25Z</time>
      </trkpt>
      <trkpt lat="36.3624120" lon="-5.2476550">
        <ele>113.6</ele>
        <time>2022-12-07T03:19:05Z</time>
      </trkpt>
      <trkpt lat="36.3624380" lon="-5.2476900">
        <ele>113.9</ele>
        <time>2022-12-07T03:19:45Z</time>
      </trkpt>
      <trkpt lat="36.3624690" lon="-5.2477180">
        <ele>114.1</ele>
        <time>2022-12-07T03:20:25Z</time>
      </trkpt>
      <trkpt lat="36.3625000" lon="-5.2477460">
        <ele>114.3</ele>
        <time>2022-12-07T03:21:05Z</time>
      </trkpt>
      <trkpt lat="36.3625290" lon="-5.2477760">
        <ele>114.6</ele>
        <time>2022-12-07T03:21:45Z</time>
      </trkpt>
      <trkpt lat="36.3625560" lon="-5.2478080">
        <ele>114.8</ele>
        <time>2022-12-07T03:22:25Z</time>
      </trkpt>
      <trkpt lat="36.3625850" lon="-5.2478400">
        <ele>115.1</ele>
        <time>2022-12-07T03:23:05Z</time>
      </trkpt>
      <trkpt lat="36.3626120" lon="-5.2478710">
        <ele>115.4</ele>
        <time>2022-12-07T03:23:45Z</time>
      </trkpt>
      <trkpt lat="36.3626400" lon="-5.2479000">
        <ele>115.7</ele>
        <time>2022-12-07T03:24:25Z</time>
      </trkpt>
      <trkpt lat="36.3626690" lon="-5.2479300">
        <ele>116.0</ele>
        <time>2022-12-07T03:25:05Z</time>
      </trkpt>
      <trkpt lat="36.3626970" lon="-5.2479630">
        <ele>116.3</ele>
        <time>2022-12-07T03:25:45Z</time>
      </trkpt>
      <trkpt lat="36.3627250" lon="-5.2479950">
        <ele>116.7</ele>
        <time>2022-12-07T03:26:25Z</time>
      </trkpt>
      <trkpt lat="36.3627570" lon="-5.2480210">
        <ele>117.0</ele>
        <time>2022-12-07T03:27:05Z</time>
      </trkpt>
      <trkpt lat="36.3627900" lon="-5.2480430">
        <ele>117.3</ele>
        <time>2022-12-07T03:27:45Z</time>
      </trkpt>
      <trkpt lat="36.3628220" lon="-5.2480660">
        <ele>117.6</ele>
        <time>2022-12-07T03:28:25Z</time>
      </trkpt>
      <trkpt lat="36.3628530" lon="-5.2480900">
        <ele>117.7</ele>
        <time>2022-12-07T03:29:05Z</time>
      </trkpt>
      <trkpt lat="36.3628850" lon="-5.2481120">
        <ele>117.9</ele>
        <time>2022-12-07T03:29:45Z</time>
      </trkpt>
      <trkpt lat="36.3629150" lon="-5.2481320">
        <ele>118.0</ele>
        <time>2022-12-07T03:30:25Z</time>
      </trkpt>
      <trkpt lat="36.3629440" lon="-5.2481550">
        <ele>118.2</ele>
        <time>2022-12-07T03:31:05Z</time>
      </trkpt>
      <trkpt lat="36.3629720" lon="-5.2481780">
        <ele>118.4</ele>
        <time>2022-12-07T03:31:45Z</time>
      </trkpt>
      <trkpt lat="36.3630000" lon="-5.2482020">
        <ele>118.5</ele>
        <time>2022-12-07T03:32:25Z</time>
      </trkpt>
      <trkpt lat="36.3630270" lon="-5.2482280">
        <ele>118.7</ele>
        <time>2022-12-07T03:33:05Z</time>
      </trkpt>
      <trkpt lat="36.3630540" lon="-5.2482520">
        <ele>118.9</ele>
        <time>2022-12-07T03:33:45Z</time>
      </trkpt>
      <trkpt lat="36.3630810" lon="-5.2482780">
        <ele>119.1</ele>
        <time>2022-12-07T03:34:25Z</time>
      </trkpt>
      <trkpt lat="36.3631080" lon="-5.2483050">
        <ele>119.3</ele>
        <time>2022-12-07T03:35:05Z</time>
      </trkpt>
      <trkpt lat="36.3631350" lon="-5.2483350">
        <ele>119.5</ele>
        <time>2022-12-07T03:35:45Z</time>
      </trkpt>
      <trkpt lat="36.3631620" lon="-5.2483650">
        <ele>119.7</ele>
        <time>2022-12-07T03:36:25Z</time>
      </trkpt>
      <trkpt lat="36.3631890" lon="-5.2483940">
        <ele>119.9</ele>
        <time>2022-12-07T03:37:05Z</time>
      </trkpt>
      <trkpt lat="36.3632130" lon="-5.2484250">
        <ele>120.1</ele>
        <time>2022-12-07T03:37:45Z</time>
      </trkpt>
      <trkpt lat="36.3632360" lon="-5.2484560">
        <ele>120.3</ele>
        <time>2022-12-07T03:38:25Z</time>
      </trkpt>
      <trkpt lat="36.3632600" lon="-5.2484860">
        <ele>120.5</ele>
        <time>2022-12-07T03:39:05Z</time>
      </trkpt>
      <trkpt lat="36.3632840" lon="-5.2485180">
        <ele>120.7</ele>
        <time>2022-12-07T03:39:45Z</time>
      </trkpt>
      <trkpt lat="36.3633110" lon="-5.2485480">
        <ele>120.9</ele>
        <time>2022-12-07T03:40:25Z</time>
      </trkpt>
      <trkpt lat="36.3633380" lon="-5.2485790">
        <ele>121.1</ele>
        <time>2022-12-07T03:41:05Z</time>
      </trkpt>
      <trkpt lat="36.3633610" lon="-5.2486060">
        <ele>121.3</ele>
        <time>2022-12-07T03:41:45Z</time>
      </trkpt>
      <trkpt lat="36.3633810" lon="-5.2486370">
        <ele>121.5</ele>
        <time>2022-12-07T03:42:25Z</time>
      </trkpt>
      <trkpt lat="36.3634000" lon="-5.2486700">
        <ele>121.7</ele>
        <time>2022-12-07T03:43:05Z</time>
      </trkpt>
      <trkpt lat="36.3634210" lon="-5.2487060">
        <ele>121.9</ele>
        <time>2022-12-07T03:43:45Z</time>
      </trkpt>
      <trkpt lat="36.3634420" lon="-5.2487420">
        <ele>122.2</ele>
        <time>2022-12-07T03:44:25Z</time>
      </trkpt>
      <trkpt lat="36.3634610" lon="-5.2487780">
        <ele>122.4</ele>
        <time>2022-12-07T03:45:05Z</time>
      </trkpt>
      <trkpt lat="36.3634790" lon="-5.2488150">
        <ele>122.6</ele>
        <time>2022-12-07T03:45:45Z</time>
      </trkpt>
      <trkpt lat="36.3634980" lon="-5.2488530">
        <ele>122.8</ele>
        <time>2022-12-07T03:46:25Z</time>
      </trkpt>
      <trkpt lat="36.3635180" lon="-5.2488930">
        <ele>123.0</ele>
        <time>2022-12-07T03:47:05Z</time>
      </trkpt>
      <trkpt lat="36.3635380" lon="-5.2489320">
        <ele>123.3</ele>
        <time>2022-12-07T03:47:45Z</time>
      </trkpt>
      <trkpt lat="36.3635600" lon="-5.2489700">
        <ele>123.5</ele>
        <time>2022-12-07T03:48:25Z</time>
      </trkpt>
      <trkpt lat="36.3635830" lon="-5.2490120">
        <ele>123.8</ele>
        <time>2022-12-07T03:49:05Z</time>
      </trkpt>
      <trkpt lat="36.3636050" lon="-5.2490550">
        <ele>124.0</ele>
        <time>2022-12-07T03:49:45Z</time>
      </trkpt>
      <trkpt lat="36.3636250" lon="-5.2491000">
        <ele>124.3</ele>
        <time>2022-12-07T03:50:25Z</time>
      </trkpt>
      <trkpt lat="36.3636460" lon="-5.2491450">
        <ele>124.5</ele>
        <time>2022-12-07T03:51:05Z</time>
      </trkpt>
      <trkpt lat="36.3636680" lon="-5.2491890">
        <ele>124.8</ele>
        <time>2022-12-07T03:51:45Z</time>
      </trkpt>
      <trkpt lat="36.3636880" lon="-5.2492330">
        <ele>125.0</ele>
        <time>2022-12-07T03:52:25Z</time>
      </trkpt>
      <trkpt lat="36.3637080" lon="-5.2492800">
        <ele>125.2</ele>
        <time>2022-12-07T03:53:05Z</time>
      </trkpt>
      <trkpt lat="36.3637300" lon="-5.2493270">
        <ele>125.5</ele>
        <time>2022-12-07T03:53:45Z</time>
      </trkpt>
      <trkpt lat="36.3637550" lon="-5.2493760">
        <ele>125.7</ele>
        <time>2022-12-07T03:54:25Z</time>
      </trkpt>
      <trkpt lat="36.3637850" lon="-5.2494230">
        <ele>126.0</ele>
        <time>2022-12-07T03:55:05Z</time>
      </trkpt>
      <trkpt lat="36.3638200" lon="-5.2494690">
        <ele>126.3</ele>
        <time>2022-12-07T03:55:45Z</time>
      </trkpt>
      <trkpt lat="36.3638610" lon="-5.2495130">
        <ele>126.6</ele>
        <time>2022-12-07T03:56:25Z</time>
      </trkpt>
      <trkpt lat="36.3639060" lon="-5.2495550">
        <ele>126.9</ele>
        <time>2022-12-07T03:57:05Z</time>
      </trkpt>
      <trkpt lat="36.3639530" lon="-5.2496010">
        <ele>127.3</ele>
        <time>2022-12-07T03:57:45Z</time>
      </trkpt>
      <trkpt lat="36.3640000" lon="-5.2496510">
        <ele>127.6</ele>
        <time>2022-12-07T03:58:25Z</time>
      </trkpt>
      <trkpt lat="36.3636460" lon="-5.2491450">
        <ele>130.0</ele>
        <time>2022-12-07T03:59:05Z</time>
      </trkpt>
      <trkpt lat="36.3640960" lon="-5.2497600">
        <ele>129.3</ele>
        <time>2022-12-07T03:59:45Z</time>
      </trkpt>
      <trkpt lat="36.3641450" lon="-5.2498190">
        <ele>128.9</ele>
        <time>2022-12-07T04:00:25Z</time>
      </trkpt>
      <trkpt lat="36.3641930" lon="-5.2498830">
        <ele>128.4</ele>
        <time>2022-12-07T04:01:05Z</time>
      </trkpt>
      <trkpt lat="36.3642420" lon="-5.2499480">
        <ele>127.9</ele>
        <time>2022-12-07T04:01:45Z</time>
      </trkpt>
      <trkpt lat="36.3642930" lon="-5.2500150">
        <ele>127.4</ele>
        <time>2022-12-07T04:02:25Z</time>
      </trkpt>
      <trkpt lat="36.3643510" lon="-5.2500860">
        <ele>126.9</ele>
        <time>2022-12-07T04:03:05Z</time>
      </trkpt>
      <trkpt lat="36.3644110" lon="-5.2501610">
        <ele>126.4</ele>
        <time>2022-12-07T04:03:45Z</time>
      </trkpt>
      <trkpt lat="36.3644720" lon="-5.2502380">
        <ele>126.0</ele>
        <time>2022-12-07T04:04:25Z</time>
      </trkpt>
      <trkpt lat="36.3645320" lon="-5.2503150">
        <ele>125.7</ele>
        <time>2022-12-07T04:05:05Z</time>
      </trkpt>
      <trkpt lat="36.3645930" lon="-5.2503900">
        <ele>125.6</ele>
        <time>2022-12-07T04:05:45Z</time>
      </trkpt>
      <trkpt lat="36.3646540" lon="-5.2504620">
        <ele>125.6</ele>
        <time>2022-12-07T04:06:25Z</time>
      </trkpt>
      <trkpt lat="36.3647160" lon="-5.2505330">
        <ele>125.6</ele>
        <time>2022-12-07T04:07:05Z</time>
      </trkpt>
      <trkpt lat="36.3647750" lon="-5.2506040">
        <ele>125.6</ele>
        <time>2022-12-07T04:07:45Z</time>
      </trkpt>
      <trkpt lat="36.3648360" lon="-5.2506700">
        <ele>125.7</ele>
        <time>2022-12-07T04:08:25Z</time>
      </trkpt>
      <trkpt lat="36.3648960" lon="-5.2507330">
        <ele>125.9</ele>
        <time>2022-12-07T04:09:05Z</time>
      </trkpt>
      <trkpt lat="36.3649610" lon="-5.2507910">
        <ele>126.2</ele>
        <time>2022-12-07T04:09:45Z</time>
      </trkpt>
      <trkpt lat="36.3650260" lon="-5.2508460">
        <ele>126.5</ele>
        <time>2022-12-07T04:10:25Z</time>
      </trkpt>
      <trkpt lat="36.3650890" lon="-5.2508980">
        <ele>126.8</ele>
        <time>2022-12-07T04:11:05Z</time>
      </trkpt>
      <trkpt lat="36.3651520" lon="-5.2509440">
        <ele>127.3</ele>
        <time>2022-12-07T04:11:45Z</time>
      </trkpt>
      <trkpt lat="36.3652120" lon="-5.2509890">
        <ele>127.8</ele>
        <time>2022-12-07T04:12:25Z</time>
      </trkpt>
      <trkpt lat="36.3652670" lon="-5.2510280">
        <ele>128.2</ele>
        <time>2022-12-07T04:13:05Z</time>
      </trkpt>
      <trkpt lat="36.3653180" lon="-5.2510640">
        <ele>128.8</ele>
        <time>2022-12-07T04:13:45Z</time>
      </trkpt>
      <trkpt lat="36.3653650" lon="-5.2510970">
        <ele>129.3</ele>
        <time>2022-12-07T04:14:25Z</time>
      </trkpt>
      <trkpt lat="36.3654080" lon="-5.2511250">
        <ele>129.5</ele>
        <time>2022-12-07T04:15:05Z</time>
      </trkpt>
      <trkpt lat="36.3654490" lon="-5.2511480">
        <ele>129.7</ele>
        <time>2022-12-07T04:15:45Z</time>
      </trkpt>
      <trkpt lat="36.3654860" lon="-5.2511700">
        <ele>129.9</ele>
        <time>2022-12-07T04:16:25Z</time>
      </trkpt>
      <trkpt lat="36.3655180" lon="-5.2511900">
        <ele>130.2</ele>
        <time>2022-12-07T04:17:05Z</time>
      </trkpt>
      <trkpt lat="36.3655480" lon="-5.2512080">
        <ele>130.5</ele>
        <time>2022-12-07T04:17:45Z</time>
      </trkpt>
      <trkpt lat="36.3655760" lon="-5.2512250">
        <ele>130.9</ele>
        <time>2022-12-07T04:18:25Z</time>
      </trkpt>
      <trkpt lat="36.3656040" lon="-5.2512440">
        <ele>131.2</ele>
        <time>2022-12-07T04:19:05Z</time>
      </trkpt>
      <trkpt lat="36.3656340" lon="-5.2512590">
        <ele>131.5</ele>
        <time>2022-12-07T04:19:45Z</time>
      </trkpt>
      <trkpt lat="36.3656610" lon="-5.2512790">
        <ele>131.9</ele>
        <time>2022-12-07T04:20:25Z</time>
      </trkpt>
      <trkpt lat="36.3656860" lon="-5.2513010">
        <ele>132.2</ele>
        <time>2022-12-07T04:21:05Z</time>
      </trkpt>
      <trkpt lat="36.3657120" lon="-5.2513240">
        <ele>132.6</ele>
        <time>2022-12-07T04:21:45Z</time>
      </trkpt>
      <trkpt lat="36.3657400" lon="-5.2513440">
        <ele>133.0</ele>
        <time>2022-12-07T04:22:25Z</time>
      </trkpt>
      <trkpt lat="36.3657680" lon="-5.2513660">
        <ele>133.4</ele>
        <time>2022-12-07T04:23:05Z</time>
      </trkpt>
      <trkpt lat="36.3657960" lon="-5.2513890">
        <ele>133.8</ele>
        <time>2022-12-07T04:23:45Z</time>
      </trkpt>
      <trkpt lat="36.3658230" lon="-5.2514130">
        <ele>134.2</ele>
        <time>2022-12-07T04:24:25Z</time>
      </trkpt>
      <trkpt lat="36.3658500" lon="-5.2514370">
        <ele>134.5</ele>
        <time>2022-12-07T04:25:05Z</time>
      </trkpt>
      <trkpt lat="36.3658780" lon="-5.2514590">
        <ele>134.9</ele>
        <time>2022-12-07T04:25:45Z</time>
      </trkpt>
      <trkpt lat="36.3659040" lon="-5.2514810">
        <ele>135.3</ele>
        <time>2022-12-07T04:26:25Z</time>
      </trkpt>
      <trkpt lat="36.3659310" lon="-5.2515030">
        <ele>135.6</ele>
        <time>2022-12-07T04:27:05Z</time>
      </trkpt>
      <trkpt lat="36.3659580" lon="-5.2515270">
        <ele>135.9</ele>
        <time>2022-12-07T04:27:45Z</time>
      </trkpt>
      <trkpt lat="36.3659860" lon="-5.2515500">
        <ele>136.3</ele>
        <time>2022-12-07T04:28:25Z</time>
      </trkpt>
      <trkpt lat="36.3660140" lon="-5.2515740">
        <ele>136.6</ele>
        <time>2022-12-07T04:29:05Z</time>
      </trkpt>
      <trkpt lat="36.3660410" lon="-5.2515990">
        <ele>137.0</ele>
        <time>2022-12-07T04:29:45Z</time>
      </trkpt>
      <trkpt lat="36.3660700" lon="-5.2516190">
        <ele>137.3</ele>
        <time>2022-12-07T04:30:25Z</time>
      </trkpt>
      <trkpt lat="36.3660970" lon="-5.2516410">
        <ele>137.7</ele>
        <time>2022-12-07T04:31:05Z</time>
      </trkpt>
      <trkpt lat="36.3661240" lon="-5.2516650">
        <ele>138.0</ele>
        <time>2022-12-07T04:31:45Z</time>
      </trkpt>
      <trkpt lat="36.3661530" lon="-5.2516870">
        <ele>138.3</ele>
        <time>2022-12-07T04:32:25Z</time>
      </trkpt>
      <trkpt lat="36.3661800" lon="-5.2517130">
        <ele>138.6</ele>
        <time>2022-12-07T04:33:05Z</time>
      </trkpt>
      <trkpt lat="36.3662070" lon="-5.2517410">
        <ele>138.9</ele>
        <time>2022-12-07T04:33:45Z</time>
      </trkpt>
      <trkpt lat="36.3662360" lon="-5.2517730">
        <ele>139.2</ele>
        <time>2022-12-07T04:34:25Z</time>
      </trkpt>
      <trkpt lat="36.3662630" lon="-5.2518060">
        <ele>139.5</ele>
        <time>2022-12-07T04:35:05Z</time>
      </trkpt>
      <trkpt lat="36.3662930" lon="-5.2518380">
        <ele>139.7</ele>
        <time>2022-12-07T04:35:45Z</time>
      </trkpt>
      <trkpt lat="36.3663230" lon="-5.2518740">
        <ele>139.9</ele>
        <time>2022-12-07T04:36:25Z</time>
      </trkpt>
      <trkpt lat="36.3663590" lon="-5.2519070">
        <ele>140.1</ele>
        <time>2022-12-07T04:37:05Z</time>
      </trkpt>
      <trkpt lat="36.3663950" lon="-5.2519400">
        <ele>140.2</ele>
        <time>2022-12-07T04:37:45Z</time>
      </trkpt>
      <trkpt lat="36.3664340" lon="-5.2519740">
        <ele>140.3</ele>
        <time>2022-12-07T04:38:25Z</time>
      </trkpt>
      <trkpt lat="36.3664730" lon="-5.2520070">
        <ele>140.3</ele>
        <time>2022-12-07T04:39:05Z</time>
      </trkpt>
      <trkpt lat="36.3665140" lon="-5.2520420">
        <ele>140.3</ele>
        <time>2022-12-07T04:39:45Z</time>
      </trkpt>
      <trkpt lat="36.3665610" lon="-5.2520790">
        <ele>140.3</ele>
        <time>2022-12-07T04:40:25Z</time>
      </trkpt>
      <trkpt lat="36.3666110" lon="-5.2521180">
        <ele>140.3</ele>
        <time>2022-12-07T04:41:05Z</time>
      </trkpt>
      <trkpt lat="36.3666610" lon="-5.2521600">
        <ele>140.4</ele>
        <time>2022-12-07T04:41:45Z</time>
      </trkpt>
      <trkpt lat="36.3667140" lon="-5.2522000">
        <ele>140.4</ele>
        <time>2022-12-07T04:42:25Z</time>
      </trkpt>
      <trkpt lat="36.3667700" lon="-5.2522400">
        <ele>140.4</ele>
        <time>2022-12-07T04:43:05Z</time>
      </trkpt>
      <trkpt lat="36.3668260" lon="-5.2522760">
        <ele>140.4</ele>
        <time>2022-12-07T04:43:45Z</time>
      </trkpt>
      <trkpt lat="36.3668820" lon="-5.2523150">
        <ele>140.5</ele>
        <time>2022-12-07T04:44:25Z</time>
      </trkpt>
      <trkpt lat="36.3669370" lon="-5.2523550">
        <ele>140.6</ele>
        <time>2022-12-07T04:45:05Z</time>
      </trkpt>
      <trkpt lat="36.3669950" lon="-5.2523900">
        <ele>140.8</ele>
        <time>2022-12-07T04:45:45Z</time>
      </trkpt>
      <trkpt lat="36.3670520" lon="-5.2524260">
        <ele>141.0</ele>
        <time>2022-12-07T04:46:25Z</time>
      </trkpt>
      <trkpt lat="36.3671080" lon="-5.2524610">
        <ele>141.3</ele>
        <time>2022-12-07T04:47:05Z</time>
      </trkpt>
      <trkpt lat="36.3671610" lon="-5.2524970">
        <ele>141.6</ele>
        <time>2022-12-07T04:47:45Z</time>
      </trkpt>
      <trkpt lat="36.3672140" lon="-5.2525300">
        <ele>141.9</ele>
        <time>2022-12-07T04:48:25Z</time>
      </trkpt>
      <trkpt lat="36.3672690" lon="-5.2525610">
        <ele>142.1</ele>
        <time>2022-12-07T04:49:05Z</time>
      </trkpt>
      <trkpt lat="36.3673200" lon="-5.2525930">
        <ele>142.4</ele>
        <time>2022-12-07T04:49:45Z</time>
      </trkpt>
      <trkpt lat="36.3673730" lon="-5.2526240">
        <ele>142.5</ele>
        <time>2022-12-07T04:50:25Z</time>
      </trkpt>
      <trkpt lat="36.3674270" lon="-5.2526550">
        <ele>142.7</ele>
        <time>2022-12-07T04:51:05Z</time>
      </trkpt>
      <trkpt lat="36.3674810" lon="-5.2526900">
        <ele>142.7</ele>
        <time>2022-12-07T04:51:45Z</time>
      </trkpt>
      <trkpt lat="36.3675360" lon="-5.2527250">
        <ele>142.7</ele>
        <time>2022-12-07T04:52:25Z</time>
      </trkpt>
      <trkpt lat="36.3675910" lon="-5.2527610">
        <ele>142.6</ele>
        <time>2022-12-07T04:53:05Z</time>
      </trkpt>
      <trkpt lat="36.3676440" lon="-5.2527960">
        <ele>142.4</ele>
        <time>2022-12-07T04:53:45Z</time>
      </trkpt>
      <trkpt lat="36.3676990" lon="-5.2528370">
        <ele>142.1</ele>
        <time>2022-12-07T04:54:25Z</time>
      </trkpt>
      <trkpt lat="36.3677560" lon="-5.2528800">
        <ele>141.6</ele>
        <time>2022-12-07T04:55:05Z</time>
      </trkpt>
      <trkpt lat="36.3678160" lon="-5.2529270">
        <ele>141.1</ele>
        <time>2022-12-07T04:55:45Z</time>
      </trkpt>
      <trkpt lat="36.3678810" lon="-5.2529810">
        <ele>140.4</ele>
        <time>2022-12-07T04:56:25Z</time>
      </trkpt>
      <trkpt lat="36.3679480" lon="-5.2530390">
        <ele>139.7</ele>
        <time>2022-12-07T04:57:05Z</time>
      </trkpt>
      <trkpt lat="36.3680180" lon="-5.2530950">
        <ele>138.9</ele>
        <time>2022-12-07T04:57:45Z</time>
      </trkpt>
      <trkpt lat="36.3680950" lon="-5.2531460">
        <ele>138.2</ele>
        <time>2022-12-07T04:58:25Z</time>
      </trkpt>
      <trkpt lat="36.3681790" lon="-5.2531960">
        <ele>137.2</ele>
        <time>2022-12-07T04:59:05Z</time>
      </trkpt>
      <trkpt lat="36.3682670" lon="-5.2532450">
        <ele>136.3</ele>
        <time>2022-12-07T04:59:45Z</time>
      </trkpt>
      <trkpt lat="36.3683580" lon="-5.2532970">
        <ele>135.3</ele>
        <time>2022-12-07T05:00:25Z</time>
      </trkpt>
      <trkpt lat="36.3684440" lon="-5.2533620">
        <ele>134.4</ele>
        <time>2022-12-07T05:01:05Z</time>
      </trkpt>
      <trkpt lat="36.3685200" lon="-5.2534430">
        <ele>133.4</ele>
        <time>2022-12-07T05:01:45Z</time>
      </trkpt>
      <trkpt lat="36.3685890" lon="-5.2535380">
        <ele>132.4</ele>
        <time>2022-12-07T05:02:25Z</time>
      </trkpt>
      <trkpt lat="36.3686530" lon="-5.2536390">
        <ele>131.5</ele>
        <time>2022-12-07T05:03:05Z</time>
      </trkpt>
      <trkpt lat="36.3687200" lon="-5.2537410">
        <ele>130.5</ele>
        <time>2022-12-07T05:03:45Z</time>
      </trkpt>
      <trkpt lat="36.3687870" lon="-5.2538400">
        <ele>129.8</ele>
        <time>2022-12-07T05:04:25Z</time>
      </trkpt>
      <trkpt lat="36.3688580" lon="-5.2539340">
        <ele>129.3</ele>
        <time>2022-12-07T05:05:05Z</time>
      </trkpt>
      <trkpt lat="36.3689320" lon="-5.2540160">
        <ele>129.0</ele>
        <time>2022-12-07T05:05:45Z</time>
      </trkpt>
      <trkpt lat="36.3690040" lon="-5.2540980">
        <ele>128.7</ele>
        <time>2022-12-07T05:06:25Z</time>
      </trkpt>
      <trkpt lat="36.3690770" lon="-5.2541720">
        <ele>128.7</ele>
        <time>2022-12-07T05:07:05Z</time>
      </trkpt>
      <trkpt lat="36.3691490" lon="-5.2542350">
        <ele>128.8</ele>
        <time>2022-12-07T05:07:45Z</time>
      </trkpt>
      <trkpt lat="36.3692180" lon="-5.2542840">
        <ele>129.0</ele>
        <time>2022-12-07T05:08:25Z</time>
      </trkpt>
      <trkpt lat="36.3692880" lon="-5.2543170">
        <ele>129.3</ele>
        <time>2022-12-07T05:09:05Z</time>
      </trkpt>
      <trkpt lat="36.3693530" lon="-5.2543430">
        <ele>129.7</ele>
        <time>2022-12-07T05:09:45Z</time>
      </trkpt>
      <trkpt lat="36.3694170" lon="-5.2543620">
        <ele>130.1</ele>
        <time>2022-12-07T05:10:25Z</time>
      </trkpt>
      <trkpt lat="36.3694760" lon="-5.2543800">
        <ele>130.4</ele>
        <time>2022-12-07T05:11:05Z</time>
      </trkpt>
      <trkpt lat="36.3695310" lon="-5.2544010">
        <ele>130.8</ele>
        <time>2022-12-07T05:11:45Z</time>
      </trkpt>
      <trkpt lat="36.3695820" lon="-5.2544280">
        <ele>131.2</ele>
        <time>2022-12-07T05:12:25Z</time>
      </trkpt>
      <trkpt lat="36.3696280" lon="-5.2544620">
        <ele>131.5</ele>
        <time>2022-12-07T05:13:05Z</time>
      </trkpt>
      <trkpt lat="36.3696690" lon="-5.2545000">
        <ele>131.8</ele>
        <time>2022-12-07T05:13:45Z</time>
      </trkpt>
      <trkpt lat="36.3697070" lon="-5.2545390">
        <ele>132.0</ele>
        <time>2022-12-07T05:14:25Z</time>
      </trkpt>
      <trkpt lat="36.3697470" lon="-5.2545830">
        <ele>132.1</ele>
        <time>2022-12-07T05:15:05Z</time>
      </trkpt>
      <trkpt lat="36.3697830" lon="-5.2546320">
        <ele>132.3</ele>
        <time>2022-12-07T05:15:45Z</time>
      </trkpt>
      <trkpt lat="36.3698170" lon="-5.2546800">
        <ele>132.4</ele>
        <time>2022-12-07T05:16:25Z</time>
      </trkpt>
      <trkpt lat="36.3698530" lon="-5.2547300">
        <ele>132.5</ele>
        <time>2022-12-07T05:17:05Z</time>
      </trkpt>
      <trkpt lat="36.3698900" lon="-5.2547790">
        <ele>132.6</ele>
        <time>2022-12-07T05:17:45Z</time>
      </trkpt>
      <trkpt lat="36.3699260" lon="-5.2548320">
        <ele>132.7</ele>
        <time>2022-12-07T05:18:25Z</time>
      </trkpt>
      <trkpt lat="36.3699620" lon="-5.2548840">
        <ele>132.8</ele>
        <time>2022-12-07T05:19:05Z</time>
      </trkpt>
      <trkpt lat="36.3699960" lon="-5.2549390">
        <ele>132.9</ele>
        <time>2022-12-07T05:19:45Z</time>
      </trkpt>
      <trkpt lat="36.3700280" lon="-5.2549980">
        <ele>133.1</ele>
        <time>2022-12-07T05:20:25Z</time>
      </trkpt>
      <trkpt lat="36.3700590" lon="-5.2550590">
        <ele>133.2</ele>
        <time>2022-12-07T05:21:05Z</time>
      </trkpt>
      <trkpt lat="36.3700870" lon="-5.2551210">
        <ele>133.4</ele>
        <time>2022-12-07T05:21:45Z</time>
      </trkpt>
      <trkpt lat="36.3701140" lon="-5.2551850">
        <ele>133.6</ele>
        <time>2022-12-07T05:22:25Z</time>
      </trkpt>
      <trkpt lat="36.3701410" lon="-5.2552510">
        <ele>133.8</ele>
        <time>2022-12-07T05:23:05Z</time>
      </trkpt>
      <trkpt lat="36.3701710" lon="-5.2553140">
        <ele>134.1</ele>
        <time>2022-12-07T05:23:45Z</time>
      </trkpt>
      <trkpt lat="36.3702010" lon="-5.2553750">
        <ele>134.4</ele>
        <time>2022-12-07T05:24:25Z</time>
      </trkpt>
      <trkpt lat="36.3702300" lon="-5.2554360">
        <ele>134.7</ele>
        <time>2022-12-07T05:25:05Z</time>
      </trkpt>
      <trkpt lat="36.3702540" lon="-5.2554950">
        <ele>135.2</ele>
        <time>2022-12-07T05:25:45Z</time>
      </trkpt>
      <trkpt lat="36.3702750" lon="-5.2555490">
        <ele>135.6</ele>
        <time>2022-12-07T05:26:25Z</time>
      </trkpt>
      <trkpt lat="36.3702960" lon="-5.2556000">
        <ele>136.1</ele>
        <time>2022-12-07T05:27:05Z</time>
      </trkpt>
      <trkpt lat="36.3703170" lon="-5.2556440">
        <ele>136.5</ele>
        <time>2022-12-07T05:27:45Z</time>
      </trkpt>
      <trkpt lat="36.3703400" lon="-5.2556830">
        <ele>137.0</ele>
        <time>2022-12-07T05:28:25Z</time>
      </trkpt>
      <trkpt lat="36.3703570" lon="-5.2557230">
        <ele>137.5</ele>
        <time>2022-12-07T05:29:05Z</time>
      </trkpt>
      <trkpt lat="36.3703740" lon="-5.2557600">
        <ele>137.9</ele>
        <time>2022-12-07T05:29:45Z</time>
      </trkpt>
      <trkpt lat="36.3703950" lon="-5.2557950">
        <ele>138.3</ele>
        <time>2022-12-07T05:30:25Z</time>
      </trkpt>
      <trkpt lat="36.3704220" lon="-5.2558270">
        <ele>138.8</ele>
        <time>2022-12-07T05:31:05Z</time>
      </trkpt>
      <trkpt lat="36.3704470" lon="-5.2558590">
        <ele>139.3</ele>
        <time>2022-12-07T05:31:45Z</time>
      </trkpt>
      <trkpt lat="36.3704700" lon="-5.2558950">
        <ele>139.7</ele>
        <time>2022-12-07T05:32:25Z</time>
      </trkpt>
      <trkpt lat="36.3704940" lon="-5.2559300">
        <ele>140.1</ele>
        <time>2022-12-07T05:33:05Z</time>
      </trkpt>
      <trkpt lat="36.3705210" lon="-5.2559660">
        <ele>140.5</ele>
        <time>2022-12-07T05:33:45Z</time>
      </trkpt>
      <trkpt lat="36.3705510" lon="-5.2560060">
        <ele>140.8</ele>
        <time>2022-12-07T05:34:25Z</time>
      </trkpt>
      <trkpt lat="36.3705810" lon="-5.2560460">
        <ele>141.0</ele>
        <time>2022-12-07T05:35:05Z</time>
      </trkpt>
      <trkpt lat="36.3706140" lon="-5.2560860">
        <ele>141.2</ele>
        <time>2022-12-07T05:35:45Z</time>
      </trkpt>
      <trkpt lat="36.3706530" lon="-5.2561250">
        <ele>141.2</ele>
        <time>2022-12-07T05:36:25Z</time>
      </trkpt>
      <trkpt lat="36.3706930" lon="-5.2561680">
        <ele>141.2</ele>
        <time>2022-12-07T05:37:05Z</time>
      </trkpt>
      <trkpt lat="36.3707380" lon="-5.2562120">
        <ele>141.0</ele>
        <time>2022-12-07T05:37:45Z</time>
      </trkpt>
      <trkpt lat="36.3707890" lon="-5.2562580">
        <ele>140.7</ele>
        <time>2022-12-07T05:38:25Z</time>
      </trkpt>
      <trkpt lat="36.3708440" lon="-5.2563040">
        <ele>140.4</ele>
        <time>2022-12-07T05:39:05Z</time>
      </trkpt>
      <trkpt lat="36.3709030" lon="-5.2563490">
        <ele>140.1</ele>
        <time>2022-12-07T05:39:45Z</time>
      </trkpt>
      <trkpt lat="36.3709650" lon="-5.2563970">
        <ele>139.7</ele>
        <time>2022-12-07T05:40:25Z</time>
      </trkpt>
      <trkpt lat="36.3710300" lon="-5.2564470">
        <ele>139.4</ele>
        <time>2022-12-07T05:41:05Z</time>
      </trkpt>
      <trkpt lat="36.3710980" lon="-5.2564970">
        <ele>139.0</ele>
        <time>2022-12-07T05:41:45Z</time>
      </trkpt>
      <trkpt lat="36.3711630" lon="-5.2565520">
        <ele>138.7</ele>
        <time>2022-12-07T05:42:25Z</time>
      </trkpt>
      <trkpt lat="36.3712260" lon="-5.2566100">
        <ele>138.5</ele>
        <time>2022-12-07T05:43:05Z</time>
      </trkpt>
      <trkpt lat="36.3712870" lon="-5.2566730">
        <ele>138.3</ele>
        <time>2022-12-07T05:43:45Z</time>
      </trkpt>
      <trkpt lat="36.3713440" lon="-5.2567390">
        <ele>138.1</ele>
        <time>2022-12-07T05:44:25Z</time>
      </trkpt>
      <trkpt lat="36.3713970" lon="-5.2568100">
        <ele>138.0</ele>
        <time>2022-12-07T05:45:05Z</time>
      </trkpt>
      <trkpt lat="36.3714440" lon="-5.2568860">
        <ele>138.0</ele>
        <time>2022-12-07T05:45:45Z</time>
      </trkpt>
      <trkpt lat="36.3714800" lon="-5.2569650">
        <ele>138.0</ele>
        <time>2022-12-07T05:46:25Z</time>
      </trkpt>
      <trkpt lat="36.3715100" lon="-5.2570490">
        <ele>138.1</ele>
        <time>2022-12-07T05:47:05Z</time>
      </trkpt>
      <trkpt lat="36.3715380" lon="-5.2571340">
        <ele>138.2</ele>
        <time>2022-12-07T05:47:45Z</time>
      </trkpt>
      <trkpt lat="36.3715640" lon="-5.2572170">
        <ele>138.4</ele>
        <time>2022-12-07T05:48:25Z</time>
      </trkpt>
      <trkpt lat="36.3715910" lon="-5.2572990">
        <ele>138.7</ele>
        <time>2022-12-07T05:49:05Z</time>
      </trkpt>
      <trkpt lat="36.3716140" lon="-5.2573790">
        <ele>139.0</ele>
        <time>2022-12-07T05:49:45Z</time>
      </trkpt>
      <trkpt lat="36.3716330" lon="-5.2574600">
        <ele>139.3</ele>
        <time>2022-12-07T05:50:25Z</time>
      </trkpt>
      <trkpt lat="36.3716570" lon="-5.2575360">
        <ele>139.7</ele>
        <time>2022-12-07T05:51:05Z</time>
      </trkpt>
      <trkpt lat="36.3716810" lon="-5.2576110">
        <ele>140.0</ele>
        <time>2022-12-07T05:51:45Z</time>
      </trkpt>
      <trkpt lat="36.3717000" lon="-5.2576860">
        <ele>140.4</ele>
        <time>2022-12-07T05:52:25Z</time>
      </trkpt>
      <trkpt lat="36.3717260" lon="-5.2577560">
        <ele>140.7</ele>
        <time>2022-12-07T05:53:05Z</time>
      </trkpt>
      <trkpt lat="36.3717570" lon="-5.2578200">
        <ele>140.9</ele>
        <time>2022-12-07T05:53:45Z</time>
      </trkpt>
      <trkpt lat="36.3717900" lon="-5.2578860">
        <ele>141.2</ele>
        <time>2022-12-07T05:54:25Z</time>
      </trkpt>
      <trkpt lat="36.3718180" lon="-5.2579520">
        <ele>141.3</ele>
        <time>2022-12-07T05:55:05Z</time>
      </trkpt>
      <trkpt lat="36.3718440" lon="-5.2580220">
        <ele>141.4</ele>
        <time>2022-12-07T05:55:45Z</time>
      </trkpt>
      <trkpt lat="36.3718720" lon="-5.2580930">
        <ele>141.4</ele>
        <time>2022-12-07T05:56:25Z</time>
      </trkpt>
      <trkpt lat="36.3718980" lon="-5.2581680">
        <ele>141.1</ele>
        <time>2022-12-07T05:57:05Z</time>
      </trkpt>
      <trkpt lat="36.3719210" lon="-5.2582510">
        <ele>140.7</ele>
        <time>2022-12-07T05:57:45Z</time>
      </trkpt>
      <trkpt lat="36.3719460" lon="-5.2583430">
        <ele>139.8</ele>
        <time>2022-12-07T05:58:25Z</time>
      </trkpt>
      <trkpt lat="36.3719770" lon="-5.2584450">
        <ele>138.5</ele>
        <time>2022-12-07T05:59:05Z</time>
      </trkpt>
      <trkpt lat="36.3720190" lon="-5.2585520">
        <ele>136.7</ele>
        <time>2022-12-07T05:59:45Z</time>
      </trkpt>
      <trkpt lat="36.3720790" lon="-5.2586660">
        <ele>134.4</ele>
        <time>2022-12-07T06:00:25Z</time>
      </trkpt>
      <trkpt lat="36.3721500" lon="-5.2587910">
        <ele>131.5</ele>
        <time>2022-12-07T06:01:05Z</time>
      </trkpt>
      <trkpt lat="36.3722300" lon="-5.2589270">
        <ele>128.4</ele>
        <time>2022-12-07T06:01:45Z</time>
      </trkpt>
      <trkpt lat="36.3723120" lon="-5.2590740">
        <ele>125.2</ele>
        <time>2022-12-07T06:02:25Z</time>
      </trkpt>
      <trkpt lat="36.3723880" lon="-5.2592350">
        <ele>122.4</ele>
        <time>2022-12-07T06:03:05Z</time>
      </trkpt>
      <trkpt lat="36.3724440" lon="-5.2593970">
        <ele>120.1</ele>
        <time>2022-12-07T06:03:45Z</time>
      </trkpt>
      <trkpt lat="36.3724790" lon="-5.2595410">
        <ele>118.6</ele>
        <time>2022-12-07T06:04:25Z</time>
      </trkpt>
      <trkpt lat="36.3725020" lon="-5.2596620">
        <ele>117.6</ele>
        <time>2022-12-07T06:05:05Z</time>
      </trkpt>
      <trkpt lat="36.3725240" lon="-5.2597680">
        <ele>116.8</ele>
        <time>2022-12-07T06:05:45Z</time>
      </trkpt>
      <trkpt lat="36.3725510" lon="-5.2598700">
        <ele>116.0</ele>
        <time>2022-12-07T06:06:25Z</time>
      </trkpt>
      <trkpt lat="36.3725790" lon="-5.2599710">
        <ele>115.3</ele>
        <time>2022-12-07T06:07:05Z</time>
      </trkpt>
      <trkpt lat="36.3726020" lon="-5.2600660">
        <ele>114.7</ele>
        <time>2022-12-07T06:07:45Z</time>
      </trkpt>
      <trkpt lat="36.3726070" lon="-5.2601540">
        <ele>114.0</ele>
        <time>2022-12-07T06:08:25Z</time>
      </trkpt>
      <trkpt lat="36.3725990" lon="-5.2602790">
        <ele>111.8</ele>
        <time>2022-12-07T06:09:05Z</time>
      </trkpt>
      <trkpt lat="36.3726250" lon="-5.2602920">
        <ele>111.2</ele>
        <time>2022-12-07T06:09:45Z</time>
      </trkpt>
      <trkpt lat="36.3727760" lon="-5.2601030">
        <ele>107.2</ele>
        <time>2022-12-07T06:10:25Z</time>
      </trkpt>
      <trkpt lat="36.3729270" lon="-5.2599140">
        <ele>104.1</ele>
        <time>2022-12-07T06:11:05Z</time>
      </trkpt>
      <trkpt lat="36.3730780" lon="-5.2597250">
        <ele>101.6</ele>
        <time>2022-12-07T06:11:45Z</time>
      </trkpt>
      <trkpt lat="36.3732160" lon="-5.2595730">
        <ele>99.5</ele>
        <time>2022-12-07T06:12:25Z</time>
      </trkpt>
      <trkpt lat="36.3733530" lon="-5.2594300">
        <ele>97.5</ele>
        <time>2022-12-07T06:13:05Z</time>
      </trkpt>
      <trkpt lat="36.3734870" lon="-5.2593140">
        <ele>95.7</ele>
        <time>2022-12-07T06:13:45Z</time>
      </trkpt>
      <trkpt lat="36.3736260" lon="-5.2592110">
        <ele>94.1</ele>
        <time>2022-12-07T06:14:25Z</time>
      </trkpt>
      <trkpt lat="36.3737540" lon="-5.2591120">
        <ele>92.9</ele>
        <time>2022-12-07T06:15:05Z</time>
      </trkpt>
      <trkpt lat="36.3738600" lon="-5.2590310">
        <ele>92.1</ele>
        <time>2022-12-07T06:15:45Z</time>
      </trkpt>
      <trkpt lat="36.3739320" lon="-5.2589620">
        <ele>91.7</ele>
        <time>2022-12-07T06:16:25Z</time>
      </trkpt>
      <trkpt lat="36.3739820" lon="-5.2589030">
        <ele>91.4</ele>
        <time>2022-12-07T06:17:05Z</time>
      </trkpt>
      <trkpt lat="36.3739980" lon="-5.2588440">
        <ele>91.2</ele>
        <time>2022-12-07T06:17:45Z</time>
      </trkpt>
      <trkpt lat="36.3739970" lon="-5.2587990">
        <ele>91.1</ele>
        <time>2022-12-07T06:18:25Z</time>
      </trkpt>
      <trkpt lat="36.3739720" lon="-5.2587600">
        <ele>91.0</ele>
        <time>2022-12-07T06:19:05Z</time>
      </trkpt>
      <trkpt lat="36.3739340" lon="-5.2587080">
        <ele>90.9</ele>
        <time>2022-12-07T06:19:45Z</time>
      </trkpt>
      <trkpt lat="36.3738860" lon="-5.2586550">
        <ele>90.7</ele>
        <time>2022-12-07T06:20:25Z</time>
      </trkpt>
      <trkpt lat="36.3738310" lon="-5.2585900">
        <ele>90.5</ele>
        <time>2022-12-07T06:21:05Z</time>
      </trkpt>
      <trkpt lat="36.3737690" lon="-5.2585140">
        <ele>90.1</ele>
        <time>2022-12-07T06:21:45Z</time>
      </trkpt>
      <trkpt lat="36.3737090" lon="-5.2584480">
        <ele>89.8</ele>
        <time>2022-12-07T06:22:25Z</time>
      </trkpt>
      <trkpt lat="36.3736520" lon="-5.2583860">
        <ele>89.5</ele>
        <time>2022-12-07T06:23:05Z</time>
      </trkpt>
      <trkpt lat="36.3736040" lon="-5.2583180">
        <ele>89.2</ele>
        <time>2022-12-07T06:23:45Z</time>
      </trkpt>
      <trkpt lat="36.3735700" lon="-5.2582340">
        <ele>89.0</ele>
        <time>2022-12-07T06:24:25Z</time>
      </trkpt>
      <trkpt lat="36.3735480" lon="-5.2581330">
        <ele>88.8</ele>
        <time>2022-12-07T06:25:05Z</time>
      </trkpt>
      <trkpt lat="36.3735430" lon="-5.2580210">
        <ele>88.6</ele>
        <time>2022-12-07T06:25:45Z</time>
      </trkpt>
      <trkpt lat="36.3735520" lon="-5.2579110">
        <ele>88.4</ele>
        <time>2022-12-07T06:26:25Z</time>
      </trkpt>
      <trkpt lat="36.3735670" lon="-5.2578020">
        <ele>88.1</ele>
        <time>2022-12-07T06:27:05Z</time>
      </trkpt>
      <trkpt lat="36.3736070" lon="-5.2577050">
        <ele>87.6</ele>
        <time>2022-12-07T06:27:45Z</time>
      </trkpt>
      <trkpt lat="36.3736480" lon="-5.2576070">
        <ele>87.0</ele>
        <time>2022-12-07T06:28:25Z</time>
      </trkpt>
      <trkpt lat="36.3736800" lon="-5.2575080">
        <ele>86.3</ele>
        <time>2022-12-07T06:29:05Z</time>
      </trkpt>
      <trkpt lat="36.3736910" lon="-5.2574060">
        <ele>85.5</ele>
        <time>2022-12-07T06:29:45Z</time>
      </trkpt>
      <trkpt lat="36.3736990" lon="-5.2572940">
        <ele>84.8</ele>
        <time>2022-12-07T06:30:25Z</time>
      </trkpt>
      <trkpt lat="36.3737030" lon="-5.2571780">
        <ele>84.0</ele>
        <time>2022-12-07T06:31:05Z</time>
      </trkpt>
      <trkpt lat="36.3737010" lon="-5.2570590">
        <ele>83.4</ele>
        <time>2022-12-07T06:31:45Z</time>
      </trkpt>
      <trkpt lat="36.3736930" lon="-5.2569390">
        <ele>82.7</ele>
        <time>2022-12-07T06:32:25Z</time>
      </trkpt>
      <trkpt lat="36.3736830" lon="-5.2568210">
        <ele>81.9</ele>
        <time>2022-12-07T06:33:05Z</time>
      </trkpt>
      <trkpt lat="36.3736700" lon="-5.2567030">
        <ele>81.2</ele>
        <time>2022-12-07T06:33:45Z</time>
      </trkpt>
      <trkpt lat="36.3736600" lon="-5.2565860">
        <ele>80.6</ele>
        <time>2022-12-07T06:34:25Z</time>
      </trkpt>
      <trkpt lat="36.3736510" lon="-5.2564700">
        <ele>80.1</ele>
        <time>2022-12-07T06:35:05Z</time>
      </trkpt>
      <trkpt lat="36.3736430" lon="-5.2563530">
        <ele>79.7</ele>
        <time>2022-12-07T06:35:45Z</time>
      </trkpt>
      <trkpt lat="36.3736320" lon="-5.2562360">
        <ele>79.3</ele>
        <time>2022-12-07T06:36:25Z</time>
      </trkpt>
      <trkpt lat="36.3736120" lon="-5.2561250">
        <ele>79.1</ele>
        <time>2022-12-07T06:37:05Z</time>
      </trkpt>
      <trkpt lat="36.3735880" lon="-5.2560190">
        <ele>78.9</ele>
        <time>2022-12-07T06:37:45Z</time>
      </trkpt>
      <trkpt lat="36.3735650" lon="-5.2559130">
        <ele>78.8</ele>
        <time>2022-12-07T06:38:25Z</time>
      </trkpt>
      <trkpt lat="36.3735430" lon="-5.2558140">
        <ele>78.7</ele>
        <time>2022-12-07T06:39:05Z</time>
      </trkpt>
      <trkpt lat="36.3735130" lon="-5.2557180">
        <ele>78.8</ele>
        <time>2022-12-07T06:39:45Z</time>
      </trkpt>
      <trkpt lat="36.3734820" lon="-5.2556280">
        <ele>79.0</ele>
        <time>2022-12-07T06:40:25Z</time>
      </trkpt>
      <trkpt lat="36.3734460" lon="-5.2555450">
        <ele>79.5</ele>
        <time>2022-12-07T06:41:05Z</time>
      </trkpt>
      <trkpt lat="36.3734200" lon="-5.2554740">
        <ele>80.0</ele>
        <time>2022-12-07T06:41:45Z</time>
      </trkpt>
      <trkpt lat="36.3734040" lon="-5.2554120">
        <ele>80.4</ele>
        <time>2022-12-07T06:42:25Z</time>
      </trkpt>
      <trkpt lat="36.3733980" lon="-5.2553600">
        <ele>80.8</ele>
        <time>2022-12-07T06:43:05Z</time>
      </trkpt>
      <trkpt lat="36.3733990" lon="-5.2553090">
        <ele>81.2</ele>
        <time>2022-12-07T06:43:45Z</time>
      </trkpt>
      <trkpt lat="36.3734020" lon="-5.2552630">
        <ele>81.7</ele>
        <time>2022-12-07T06:44:25Z</time>
      </trkpt>
      <trkpt lat="36.3734110" lon="-5.2552260">
        <ele>82.1</ele>
        <time>2022-12-07T06:45:05Z</time>
      </trkpt>
      <trkpt lat="36.3734250" lon="-5.2551960">
        <ele>82.5</ele>
        <time>2022-12-07T06:45:45Z</time>
      </trkpt>
      <trkpt lat="36.3734420" lon="-5.2551670">
        <ele>82.9</ele>
        <time>2022-12-07T06:46:25Z</time>
      </trkpt>
      <trkpt lat="36.3734560" lon="-5.2551350">
        <ele>83.4</ele>
        <time>2022-12-07T06:47:05Z</time>
      </trkpt>
      <trkpt lat="36.3734700" lon="-5.2551070">
        <ele>83.9</ele>
        <time>2022-12-07T06:47:45Z</time>
      </trkpt>
      <trkpt lat="36.3734850" lon="-5.2550800">
        <ele>84.3</ele>
        <time>2022-12-07T06:48:25Z</time>
      </trkpt>
      <trkpt lat="36.3735040" lon="-5.2550520">
        <ele>84.8</ele>
        <time>2022-12-07T06:49:05Z</time>
      </trkpt>
      <trkpt lat="36.3735200" lon="-5.2550240">
        <ele>85.2</ele>
        <time>2022-12-07T06:49:45Z</time>
      </trkpt>
      <trkpt lat="36.3735350" lon="-5.2549970">
        <ele>85.7</ele>
        <time>2022-12-07T06:50:25Z</time>
      </trkpt>
      <trkpt lat="36.3735480" lon="-5.2549670">
        <ele>86.1</ele>
        <time>2022-12-07T06:51:05Z</time>
      </trkpt>
      <trkpt lat="36.3735590" lon="-5.2549320">
        <ele>86.6</ele>
        <time>2022-12-07T06:51:45Z</time>
      </trkpt>
      <trkpt lat="36.3735740" lon="-5.2548930">
        <ele>87.1</ele>
        <time>2022-12-07T06:52:25Z</time>
      </trkpt>
      <trkpt lat="36.3735900" lon="-5.2548620">
        <ele>87.5</ele>
        <time>2022-12-07T06:53:05Z</time>
      </trkpt>
      <trkpt lat="36.3736040" lon="-5.2548330">
        <ele>87.8</ele>
        <time>2022-12-07T06:53:45Z</time>
      </trkpt>
      <trkpt lat="36.3736190" lon="-5.2548040">
        <ele>88.2</ele>
        <time>2022-12-07T06:54:25Z</time>
      </trkpt>
      <trkpt lat="36.3736370" lon="-5.2547730">
        <ele>88.5</ele>
        <time>2022-12-07T06:55:05Z</time>
      </trkpt>
      <trkpt lat="36.3736550" lon="-5.2547420">
        <ele>88.8</ele>
        <time>2022-12-07T06:55:45Z</time>
      </trkpt>
      <trkpt lat="36.3736720" lon="-5.2547090">
        <ele>89.1</ele>
        <time>2022-12-07T06:56:25Z</time>
      </trkpt>
      <trkpt lat="36.3736890" lon="-5.2546760">
        <ele>89.3</ele>
        <time>2022-12-07T06:57:05Z</time>
      </trkpt>
      <trkpt lat="36.3737070" lon="-5.2546450">
        <ele>89.5</ele>
        <time>2022-12-07T06:57:45Z</time>
      </trkpt>
      <trkpt lat="36.3737240" lon="-5.2546150">
        <ele>89.6</ele>
        <time>2022-12-07T06:58:25Z</time>
      </trkpt>
      <trkpt lat="36.3737390" lon="-5.2545870">
        <ele>89.8</ele>
        <time>2022-12-07T06:59:05Z</time>
      </trkpt>
      <trkpt lat="36.3737570" lon="-5.2545640">
        <ele>89.9</ele>
        <time>2022-12-07T06:59:45Z</time>
      </trkpt>
      <trkpt lat="36.3737750" lon="-5.2545440">
        <ele>90.0</ele>
        <time>2022-12-07T07:00:25Z</time>
      </trkpt>
      <trkpt lat="36.3737870" lon="-5.2545310">
        <ele>90.0</ele>
        <time>2022-12-07T07:01:05Z</time>
      </trkpt>
      <trkpt lat="36.3737910" lon="-5.2545220">
        <ele>90.0</ele>
        <time>2022-12-07T07:01:45Z</time>
      </trkpt>
      <trkpt lat="36.3737920" lon="-5.2545110">
        <ele>90.1</ele>
        <time>2022-12-07T07:02:25Z</time>
      </trkpt>
      <trkpt lat="36.3737920" lon="-5.2545040">
        <ele>90.1</ele>
        <time>2022-12-07T07:03:05Z</time>
      </trkpt>
      <trkpt lat="36.3737920" lon="-5.2545010">
        <ele>90.1</ele>
        <time>2022-12-07T07:03:45Z</time>
      </trkpt>
      <trkpt lat="36.3737900" lon="-5.2545000">
        <ele>90.1</ele>
        <time>2022-12-07T07:04:25Z</time>
      </trkpt>
      <trkpt lat="36.3737900" lon="-5.2544880">
        <ele>90.1</ele>
        <time>2022-12-07T07:05:05Z</time>
      </trkpt>
      <trkpt lat="36.3737930" lon="-5.2544560">
        <ele>90.2</ele>
        <time>2022-12-07T07:05:45Z</time>
      </trkpt>
      <trkpt lat="36.3737990" lon="-5.2544110">
        <ele>91.9</ele>
        <time>2022-12-07T07:06:25Z</time>
      </trkpt>
      <trkpt lat="36.3738110" lon="-5.2543630">
        <ele>92.3</ele>
        <time>2022-12-07T07:07:05Z</time>
      </trkpt>
      <trkpt lat="36.3738290" lon="-5.2543220">
        <ele>92.7</ele>
        <time>2022-12-07T07:07:45Z</time>
      </trkpt>
      <trkpt lat="36.3738470" lon="-5.2542940">
        <ele>93.1</ele>
        <time>2022-12-07T07:08:25Z</time>
      </trkpt>
      <trkpt lat="36.3738680" lon="-5.2542780">
        <ele>93.4</ele>
        <time>2022-12-07T07:09:05Z</time>
      </trkpt>
      <trkpt lat="36.3738850" lon="-5.2542660">
        <ele>93.7</ele>
        <time>2022-12-07T07:09:45Z</time>
      </trkpt>
      <trkpt lat="36.3738990" lon="-5.2542560">
        <ele>93.9</ele>
        <time>2022-12-07T07:10:25Z</time>
      </trkpt>
      <trkpt lat="36.3739160" lon="-5.2542440">
        <ele>94.2</ele>
        <time>2022-12-07T07:11:05Z</time>
      </trkpt>
      <trkpt lat="36.3739300" lon="-5.2542290">
        <ele>94.5</ele>
        <time>2022-12-07T07:11:45Z</time>
      </trkpt>
      <trkpt lat="36.3739440" lon="-5.2542090">
        <ele>94.9</ele>
        <time>2022-12-07T07:12:25Z</time>
      </trkpt>
      <trkpt lat="36.3739570" lon="-5.2541920">
        <ele>95.3</ele>
        <time>2022-12-07T07:13:05Z</time>
      </trkpt>
      <trkpt lat="36.3739700" lon="-5.2541760">
        <ele>95.6</ele>
        <time>2022-12-07T07:13:45Z</time>
      </trkpt>
      <trkpt lat="36.3739800" lon="-5.2541630">
        <ele>95.9</ele>
        <time>2022-12-07T07:14:25Z</time>
      </trkpt>
      <trkpt lat="36.3739930" lon="-5.2541500">
        <ele>96.2</ele>
        <time>2022-12-07T07:15:05Z</time>
      </trkpt>
      <trkpt lat="36.3740090" lon="-5.2541350">
        <ele>96.7</ele>
        <time>2022-12-07T07:15:45Z</time>
      </trkpt>
      <trkpt lat="36.3740220" lon="-5.2541210">
        <ele>97.1</ele>
        <time>2022-12-07T07:16:25Z</time>
      </trkpt>
      <trkpt lat="36.3740340" lon="-5.2541060">
        <ele>97.4</ele>
        <time>2022-12-07T07:17:05Z</time>
      </trkpt>
      <trkpt lat="36.3740500" lon="-5.2540910">
        <ele>97.9</ele>
        <time>2022-12-07T07:17:45Z</time>
      </trkpt>
      <trkpt lat="36.3740630" lon="-5.2540770">
        <ele>98.3</ele>
        <time>2022-12-07T07:18:25Z</time>
      </trkpt>
      <trkpt lat="36.3740760" lon="-5.2540620">
        <ele>98.7</ele>
        <time>2022-12-07T07:19:05Z</time>
      </trkpt>
      <trkpt lat="36.3740900" lon="-5.2540440">
        <ele>99.1</ele>
        <time>2022-12-07T07:19:45Z</time>
      </trkpt>
      <trkpt lat="36.3741040" lon="-5.2540290">
        <ele>99.5</ele>
        <time>2022-12-07T07:20:25Z</time>
      </trkpt>
      <trkpt lat="36.3741200" lon="-5.2540180">
        <ele>99.9</ele>
        <time>2022-12-07T07:21:05Z</time>
      </trkpt>
      <trkpt lat="36.3741370" lon="-5.2540160">
        <ele>100.3</ele>
        <time>2022-12-07T07:21:45Z</time>
      </trkpt>
      <trkpt lat="36.3741520" lon="-5.2540090">
        <ele>100.7</ele>
        <time>2022-12-07T07:22:25Z</time>
      </trkpt>
      <trkpt lat="36.3741680" lon="-5.2540010">
        <ele>101.1</ele>
        <time>2022-12-07T07:23:05Z</time>
      </trkpt>
      <trkpt lat="36.3741870" lon="-5.2539940">
        <ele>101.5</ele>
        <time>2022-12-07T07:23:45Z</time>
      </trkpt>
      <trkpt lat="36.3742070" lon="-5.2539860">
        <ele>102.0</ele>
        <time>2022-12-07T07:24:25Z</time>
      </trkpt>
      <trkpt lat="36.3742260" lon="-5.2539760">
        <ele>102.4</ele>
        <time>2022-12-07T07:25:05Z</time>
      </trkpt>
      <trkpt lat="36.3742430" lon="-5.2539660">
        <ele>102.8</ele>
        <time>2022-12-07T07:25:45Z</time>
      </trkpt>
      <trkpt lat="36.3742590" lon="-5.2539590">
        <ele>103.2</ele>
        <time>2022-12-07T07:26:25Z</time>
      </trkpt>
      <trkpt lat="36.3742770" lon="-5.2539500">
        <ele>103.6</ele>
        <time>2022-12-07T07:27:05Z</time>
      </trkpt>
      <trkpt lat="36.3742930" lon="-5.2539410">
        <ele>104.0</ele>
        <time>2022-12-07T07:27:45Z</time>
      </trkpt>
      <trkpt lat="36.3743110" lon="-5.2539340">
        <ele>104.4</ele>
        <time>2022-12-07T07:28:25Z</time>
      </trkpt>
      <trkpt lat="36.3743300" lon="-5.2539290">
        <ele>104.8</ele>
        <time>2022-12-07T07:29:05Z</time>
      </trkpt>
      <trkpt lat="36.3743480" lon="-5.2539210">
        <ele>105.2</ele>
        <time>2022-12-07T07:29:45Z</time>
      </trkpt>
      <trkpt lat="36.3743690" lon="-5.2539160">
        <ele>105.6</ele>
        <time>2022-12-07T07:30:25Z</time>
      </trkpt>
      <trkpt lat="36.3743900" lon="-5.2539090">
        <ele>106.1</ele>
        <time>2022-12-07T07:31:05Z</time>
      </trkpt>
      <trkpt lat="36.3744090" lon="-5.2538980">
        <ele>106.5</ele>
        <time>2022-12-07T07:31:45Z</time>
      </trkpt>
      <trkpt lat="36.3744280" lon="-5.2538870">
        <ele>107.0</ele>
        <time>2022-12-07T07:32:25Z</time>
      </trkpt>
      <trkpt lat="36.3744490" lon="-5.2538790">
        <ele>107.4</ele>
        <time>2022-12-07T07:33:05Z</time>
      </trkpt>
      <trkpt lat="36.3744710" lon="-5.2538730">
        <ele>107.9</ele>
        <time>2022-12-07T07:33:45Z</time>
      </trkpt>
      <trkpt lat="36.3744900" lon="-5.2538680">
        <ele>108.3</ele>
        <time>2022-12-07T07:34:25Z</time>
      </trkpt>
      <trkpt lat="36.3745090" lon="-5.2538610">
        <ele>108.7</ele>
        <time>2022-12-07T07:35:05Z</time>
      </trkpt>
      <trkpt lat="36.3745300" lon="-5.2538570">
        <ele>109.1</ele>
        <time>2022-12-07T07:35:45Z</time>
      </trkpt>
      <trkpt lat="36.3745500" lon="-5.2538510">
        <ele>109.4</ele>
        <time>2022-12-07T07:36:25Z</time>
      </trkpt>
      <trkpt lat="36.3745690" lon="-5.2538460">
        <ele>109.8</ele>
        <time>2022-12-07T07:37:05Z</time>
      </trkpt>
      <trkpt lat="36.3745890" lon="-5.2538390">
        <ele>110.2</ele>
        <time>2022-12-07T07:37:45Z</time>
      </trkpt>
      <trkpt lat="36.3746090" lon="-5.2538350">
        <ele>110.5</ele>
        <time>2022-12-07T07:38:25Z</time>
      </trkpt>
      <trkpt lat="36.3746300" lon="-5.2538310">
        <ele>110.8</ele>
        <time>2022-12-07T07:39:05Z</time>
      </trkpt>
      <trkpt lat="36.3746520" lon="-5.2538250">
        <ele>111.2</ele>
        <time>2022-12-07T07:39:45Z</time>
      </trkpt>
      <trkpt lat="36.3746760" lon="-5.2538170">
        <ele>111.5</ele>
        <time>2022-12-07T07:40:25Z</time>
      </trkpt>
      <trkpt lat="36.3747010" lon="-5.2538020">
        <ele>111.9</ele>
        <time>2022-12-07T07:41:05Z</time>
      </trkpt>
      <trkpt lat="36.3747250" lon="-5.2537920">
        <ele>112.3</ele>
        <time>2022-12-07T07:41:45Z</time>
      </trkpt>
      <trkpt lat="36.3747520" lon="-5.2537820">
        <ele>112.6</ele>
        <time>2022-12-07T07:42:25Z</time>
      </trkpt>
      <trkpt lat="36.3747790" lon="-5.2537720">
        <ele>113.0</ele>
        <time>2022-12-07T07:43:05Z</time>
      </trkpt>
      <trkpt lat="36.3748070" lon="-5.2537650">
        <ele>113.3</ele>
        <time>2022-12-07T07:43:45Z</time>
      </trkpt>
      <trkpt lat="36.3748330" lon="-5.2537550">
        <ele>113.7</ele>
        <time>2022-12-07T07:44:25Z</time>
      </trkpt>
      <trkpt lat="36.3748580" lon="-5.2537430">
        <ele>114.0</ele>
        <time>2022-12-07T07:45:05Z</time>
      </trkpt>
      <trkpt lat="36.3748840" lon="-5.2537300">
        <ele>114.3</ele>
        <time>2022-12-07T07:45:45Z</time>
      </trkpt>
      <trkpt lat="36.3749090" lon="-5.2537190">
        <ele>114.6</ele>
        <time>2022-12-07T07:46:25Z</time>
      </trkpt>
      <trkpt lat="36.3749350" lon="-5.2537090">
        <ele>115.0</ele>
        <time>2022-12-07T07:47:05Z</time>
      </trkpt>
      <trkpt lat="36.3749610" lon="-5.2537000">
        <ele>115.2</ele>
        <time>2022-12-07T07:47:45Z</time>
      </trkpt>
      <trkpt lat="36.3749880" lon="-5.2536920">
        <ele>115.5</ele>
        <time>2022-12-07T07:48:25Z</time>
      </trkpt>
      <trkpt lat="36.3750150" lon="-5.2536850">
        <ele>115.8</ele>
        <time>2022-12-07T07:49:05Z</time>
      </trkpt>
      <trkpt lat="36.3750410" lon="-5.2536750">
        <ele>116.1</ele>
        <time>2022-12-07T07:49:45Z</time>
      </trkpt>
      <trkpt lat="36.3750680" lon="-5.2536650">
        <ele>116.4</ele>
        <time>2022-12-07T07:50:25Z</time>
      </trkpt>
      <trkpt lat="36.3750950" lon="-5.2536510">
        <ele>116.7</ele>
        <time>2022-12-07T07:51:05Z</time>
      </trkpt>
      <trkpt lat="36.3751260" lon="-5.2536380">
        <ele>117.1</ele>
        <time>2022-12-07T07:51:45Z</time>
      </trkpt>
      <trkpt lat="36.3751580" lon="-5.2536240">
        <ele>117.4</ele>
        <time>2022-12-07T07:52:25Z</time>
      </trkpt>
      <trkpt lat="36.3751870" lon="-5.2536110">
        <ele>117.8</ele>
        <time>2022-12-07T07:53:05Z</time>
      </trkpt>
      <trkpt lat="36.3752160" lon="-5.2535980">
        <ele>118.1</ele>
        <time>2022-12-07T07:53:45Z</time>
      </trkpt>
      <trkpt lat="36.3752460" lon="-5.2535800">
        <ele>118.5</ele>
        <time>2022-12-07T07:54:25Z</time>
      </trkpt>
      <trkpt lat="36.3752770" lon="-5.2535650">
        <ele>118.9</ele>
        <time>2022-12-07T07:55:05Z</time>
      </trkpt>
      <trkpt lat="36.3753070" lon="-5.2535510">
        <ele>119.3</ele>
        <time>2022-12-07T07:55:45Z</time>
      </trkpt>
      <trkpt lat="36.3753340" lon="-5.2535340">
        <ele>119.7</ele>
        <time>2022-12-07T07:56:25Z</time>
      </trkpt>
      <trkpt lat="36.3753610" lon="-5.2535130">
        <ele>120.2</ele>
        <time>2022-12-07T07:57:05Z</time>
      </trkpt>
      <trkpt lat="36.3753840" lon="-5.2534840">
        <ele>120.6</ele>
        <time>2022-12-07T07:57:45Z</time>
      </trkpt>
      <trkpt lat="36.3754000" lon="-5.2534430">
        <ele>121.1</ele>
        <time>2022-12-07T07:58:25Z</time>
      </trkpt>
      <trkpt lat="36.3754110" lon="-5.2533950">
        <ele>121.2</ele>
        <time>2022-12-07T07:59:05Z</time>
      </trkpt>
      <trkpt lat="36.3754170" lon="-5.2533420">
        <ele>121.2</ele>
        <time>2022-12-07T07:59:45Z</time>
      </trkpt>
      <trkpt lat="36.3754200" lon="-5.2532840">
        <ele>121.2</ele>
        <time>2022-12-07T08:00:25Z</time>
      </trkpt>
      <trkpt lat="36.3754180" lon="-5.2532230">
        <ele>121.2</ele>
        <time>2022-12-07T08:01:05Z</time>
      </trkpt>
      <trkpt lat="36.3754170" lon="-5.2531530">
        <ele>121.0</ele>
        <time>2022-12-07T08:01:45Z</time>
      </trkpt>
      <trkpt lat="36.3754190" lon="-5.2530710">
        <ele>120.7</ele>
        <time>2022-12-07T08:02:25Z</time>
      </trkpt>
      <trkpt lat="36.3754260" lon="-5.2529830">
        <ele>120.4</ele>
        <time>2022-12-07T08:03:05Z</time>
      </trkpt>
      <trkpt lat="36.3754400" lon="-5.2528960">
        <ele>120.3</ele>
        <time>2022-12-07T08:03:45Z</time>
      </trkpt>
      <trkpt lat="36.3754460" lon="-5.2528050">
        <ele>120.2</ele>
        <time>2022-12-07T08:04:25Z</time>
      </trkpt>
      <trkpt lat="36.3754570" lon="-5.2527230">
        <ele>120.4</ele>
        <time>2022-12-07T08:05:05Z</time>
      </trkpt>
      <trkpt lat="36.3754700" lon="-5.2526490">
        <ele>120.6</ele>
        <time>2022-12-07T08:05:45Z</time>
      </trkpt>
      <trkpt lat="36.3754830" lon="-5.2525850">
        <ele>121.0</ele>
        <time>2022-12-07T08:06:25Z</time>
      </trkpt>
      <trkpt lat="36.3754940" lon="-5.2525310">
        <ele>121.3</ele>
        <time>2022-12-07T08:07:05Z</time>
      </trkpt>
      <trkpt lat="36.3755080" lon="-5.2524850">
        <ele>121.7</ele>
        <time>2022-12-07T08:07:45Z</time>
      </trkpt>
      <trkpt lat="36.3755160" lon="-5.2524450">
        <ele>122.1</ele>
        <time>2022-12-07T08:08:25Z</time>
      </trkpt>
      <trkpt lat="36.3755260" lon="-5.2524080">
        <ele>122.4</ele>
        <time>2022-12-07T08:09:05Z</time>
      </trkpt>
      <trkpt lat="36.3755330" lon="-5.2523660">
        <ele>122.9</ele>
        <time>2022-12-07T08:09:45Z</time>
      </trkpt>
      <trkpt lat="36.3755370" lon="-5.2523310">
        <ele>123.3</ele>
        <time>2022-12-07T08:10:25Z</time>
      </trkpt>
      <trkpt lat="36.3755370" lon="-5.2522900">
        <ele>123.7</ele>
        <time>2022-12-07T08:11:05Z</time>
      </trkpt>
      <trkpt lat="36.3755420" lon="-5.2522520">
        <ele>124.1</ele>
        <time>2022-12-07T08:11:45Z</time>
      </trkpt>
      <trkpt lat="36.3755480" lon="-5.2522150">
        <ele>124.5</ele>
        <time>2022-12-07T08:12:25Z</time>
      </trkpt>
      <trkpt lat="36.3755450" lon="-5.2521760">
        <ele>124.6</ele>
        <time>2022-12-07T08:13:05Z</time>
      </trkpt>
      <trkpt lat="36.3755320" lon="-5.2521360">
        <ele>125.0</ele>
        <time>2022-12-07T08:13:45Z</time>
      </trkpt>
      <trkpt lat="36.3755040" lon="-5.2521000">
        <ele>125.4</ele>
        <time>2022-12-07T08:14:25Z</time>
      </trkpt>
      <trkpt lat="36.3754790" lon="-5.2520610">
        <ele>125.9</ele>
        <time>2022-12-07T08:15:05Z</time>
      </trkpt>
      <trkpt lat="36.3754600" lon="-5.2520140">
        <ele>126.3</ele>
        <time>2022-12-07T08:15:45Z</time>
      </trkpt>
      <trkpt lat="36.3754430" lon="-5.2519680">
        <ele>126.8</ele>
        <time>2022-12-07T08:16:25Z</time>
      </trkpt>
      <trkpt lat="36.3754340" lon="-5.2519330">
        <ele>127.1</ele>
        <time>2022-12-07T08:17:05Z</time>
      </trkpt>
      <trkpt lat="36.3754360" lon="-5.2518890">
        <ele>127.3</ele>
        <time>2022-12-07T08:17:45Z</time>
      </trkpt>
      <trkpt lat="36.3754490" lon="-5.2518400">
        <ele>127.6</ele>
        <time>2022-12-07T08:18:25Z</time>
      </trkpt>
      <trkpt lat="36.3754680" lon="-5.2518020">
        <ele>127.9</ele>
        <time>2022-12-07T08:19:05Z</time>
      </trkpt>
      <trkpt lat="36.3754910" lon="-5.2517710">
        <ele>128.1</ele>
        <time>2022-12-07T08:19:45Z</time>
      </trkpt>
      <trkpt lat="36.3755150" lon="-5.2517210">
        <ele>128.3</ele>
        <time>2022-12-07T08:20:25Z</time>
      </trkpt>
      <trkpt lat="36.3755370" lon="-5.2516810">
        <ele>128.6</ele>
        <time>2022-12-07T08:21:05Z</time>
      </trkpt>
      <trkpt lat="36.3755600" lon="-5.2516440">
        <ele>128.8</ele>
        <time>2022-12-07T08:21:45Z</time>
      </trkpt>
      <trkpt lat="36.3755820" lon="-5.2516090">
        <ele>129.2</ele>
        <time>2022-12-07T08:22:25Z</time>
      </trkpt>
      <trkpt lat="36.3756110" lon="-5.2515760">
        <ele>129.6</ele>
        <time>2022-12-07T08:23:05Z</time>
      </trkpt>
      <trkpt lat="36.3756400" lon="-5.2515460">
        <ele>129.9</ele>
        <time>2022-12-07T08:23:45Z</time>
      </trkpt>
      <trkpt lat="36.3756700" lon="-5.2515110">
        <ele>130.4</ele>
        <time>2022-12-07T08:24:25Z</time>
      </trkpt>
      <trkpt lat="36.3757020" lon="-5.2514840">
        <ele>130.7</ele>
        <time>2022-12-07T08:25:05Z</time>
      </trkpt>
      <trkpt lat="36.3757310" lon="-5.2514620">
        <ele>131.1</ele>
        <time>2022-12-07T08:25:45Z</time>
      </trkpt>
      <trkpt lat="36.3757570" lon="-5.2514430">
        <ele>131.4</ele>
        <time>2022-12-07T08:26:25Z</time>
      </trkpt>
      <trkpt lat="36.3757850" lon="-5.2514250">
        <ele>131.7</ele>
        <time>2022-12-07T08:27:05Z</time>
      </trkpt>
      <trkpt lat="36.3758180" lon="-5.2514090">
        <ele>132.1</ele>
        <time>2022-12-07T08:27:45Z</time>
      </trkpt>
      <trkpt lat="36.3758540" lon="-5.2513990">
        <ele>132.4</ele>
        <time>2022-12-07T08:28:25Z</time>
      </trkpt>
      <trkpt lat="36.3758910" lon="-5.2513880">
        <ele>132.8</ele>
        <time>2022-12-07T08:29:05Z</time>
      </trkpt>
      <trkpt lat="36.3759330" lon="-5.2513810">
        <ele>133.2</ele>
        <time>2022-12-07T08:29:45Z</time>
      </trkpt>
      <trkpt lat="36.3759740" lon="-5.2513720">
        <ele>133.7</ele>
        <time>2022-12-07T08:30:25Z</time>
      </trkpt>
      <trkpt lat="36.3760130" lon="-5.2513610">
        <ele>134.1</ele>
        <time>2022-12-07T08:31:05Z</time>
      </trkpt>
      <trkpt lat="36.3760500" lon="-5.2513480">
        <ele>134.5</ele>
        <time>2022-12-07T08:31:45Z</time>
      </trkpt>
      <trkpt lat="36.3760860" lon="-5.2513300">
        <ele>134.8</ele>
        <time>2022-12-07T08:32:25Z</time>
      </trkpt>
      <trkpt lat="36.3761260" lon="-5.2513110">
        <ele>135.2</ele>
        <time>2022-12-07T08:33:05Z</time>
      </trkpt>
      <trkpt lat="36.3761650" lon="-5.2512950">
        <ele>135.6</ele>
        <time>2022-12-07T08:33:45Z</time>
      </trkpt>
      <trkpt lat="36.3762030" lon="-5.2512850">
        <ele>135.9</ele>
        <time>2022-12-07T08:34:25Z</time>
      </trkpt>
      <trkpt lat="36.3762370" lon="-5.2512680">
        <ele>136.2</ele>
        <time>2022-12-07T08:35:05Z</time>
      </trkpt>
      <trkpt lat="36.3762740" lon="-5.2512460">
        <ele>136.5</ele>
        <time>2022-12-07T08:35:45Z</time>
      </trkpt>
      <trkpt lat="36.3763140" lon="-5.2512200">
        <ele>136.8</ele>
        <time>2022-12-07T08:36:25Z</time>
      </trkpt>
      <trkpt lat="36.3763510" lon="-5.2511930">
        <ele>136.9</ele>
        <time>2022-12-07T08:37:05Z</time>
      </trkpt>
      <trkpt lat="36.3763870" lon="-5.2511500">
        <ele>137.1</ele>
        <time>2022-12-07T08:37:45Z</time>
      </trkpt>
      <trkpt lat="36.3764240" lon="-5.2511100">
        <ele>137.2</ele>
        <time>2022-12-07T08:38:25Z</time>
      </trkpt>
      <trkpt lat="36.3764600" lon="-5.2510630">
        <ele>137.4</ele>
        <time>2022-12-07T08:39:05Z</time>
      </trkpt>
      <trkpt lat="36.3764930" lon="-5.2510190">
        <ele>137.4</ele>
        <time>2022-12-07T08:39:45Z</time>
      </trkpt>
      <trkpt lat="36.3765270" lon="-5.2509890">
        <ele>137.4</ele>
        <time>2022-12-07T08:40:25Z</time>
      </trkpt>
      <trkpt lat="36.3765530" lon="-5.2509610">
        <ele>137.4</ele>
        <time>2022-12-07T08:41:05Z</time>
      </trkpt>
      <trkpt lat="36.3765830" lon="-5.2509400">
        <ele>137.4</ele>
        <time>2022-12-07T08:41:45Z</time>
      </trkpt>
      <trkpt lat="36.3766290" lon="-5.2509270">
        <ele>137.4</ele>
        <time>2022-12-07T08:42:25Z</time>
      </trkpt>
      <trkpt lat="36.3766790" lon="-5.2509050">
        <ele>137.3</ele>
        <time>2022-12-07T08:43:05Z</time>
      </trkpt>
      <trkpt lat="36.3767310" lon="-5.2508760">
        <ele>137.3</ele>
        <time>2022-12-07T08:43:45Z</time>
      </trkpt>
      <trkpt lat="36.3767880" lon="-5.2508290">
        <ele>137.3</ele>
        <time>2022-12-07T08:44:25Z</time>
      </trkpt>
      <trkpt lat="36.3768490" lon="-5.2507740">
        <ele>137.2</ele>
        <time>2022-12-07T08:45:05Z</time>
      </trkpt>
      <trkpt lat="36.3769000" lon="-5.2507260">
        <ele>137.2</ele>
        <time>2022-12-07T08:45:45Z</time>
      </trkpt>
      <trkpt lat="36.3769450" lon="-5.2506810">
        <ele>137.1</ele>
        <time>2022-12-07T08:46:25Z</time>
      </trkpt>
      <trkpt lat="36.3769870" lon="-5.2506340">
        <ele>137.1</ele>
        <time>2022-12-07T08:47:05Z</time>
      </trkpt>
      <trkpt lat="36.3770250" lon="-5.2505950">
        <ele>137.1</ele>
        <time>2022-12-07T08:47:45Z</time>
      </trkpt>
      <trkpt lat="36.3770570" lon="-5.2505590">
        <ele>137.1</ele>
        <time>2022-12-07T08:48:25Z</time>
      </trkpt>
      <trkpt lat="36.3770850" lon="-5.2505100">
        <ele>137.1</ele>
        <time>2022-12-07T08:49:05Z</time>
      </trkpt>
      <trkpt lat="36.3771140" lon="-5.2504690">
        <ele>137.1</ele>
        <time>2022-12-07T08:49:45Z</time>
      </trkpt>
      <trkpt lat="36.3771440" lon="-5.2504260">
        <ele>137.1</ele>
        <time>2022-12-07T08:50:25Z</time>
      </trkpt>
      <trkpt lat="36.3771730" lon="-5.2503730">
        <ele>137.1</ele>
        <time>2022-12-07T08:51:05Z</time>
      </trkpt>
      <trkpt lat="36.3772040" lon="-5.2503320">
        <ele>137.1</ele>
        <time>2022-12-07T08:51:45Z</time>
      </trkpt>
      <trkpt lat="36.3772430" lon="-5.2503040">
        <ele>137.1</ele>
        <time>2022-12-07T08:52:25Z</time>
      </trkpt>
      <trkpt lat="36.3772890" lon="-5.2502730">
        <ele>137.2</ele>
        <time>2022-12-07T08:53:05Z</time>
      </trkpt>
      <trkpt lat="36.3773440" lon="-5.2502390">
        <ele>137.4</ele>
        <time>2022-12-07T08:53:45Z</time>
      </trkpt>
      <trkpt lat="36.3773950" lon="-5.2501950">
        <ele>137.6</ele>
        <time>2022-12-07T08:54:25Z</time>
      </trkpt>
      <trkpt lat="36.3774390" lon="-5.2501580">
        <ele>137.7</ele>
        <time>2022-12-07T08:55:05Z</time>
      </trkpt>
      <trkpt lat="36.3774530" lon="-5.2501480">
        <ele>137.8</ele>
        <time>2022-12-07T08:55:45Z</time>
      </trkpt>
      <trkpt lat="36.3774390" lon="-5.2501260">
        <ele>137.9</ele>
        <time>2022-12-07T08:56:25Z</time>
      </trkpt>
      <trkpt lat="36.3774470" lon="-5.2500870">
        <ele>138.0</ele>
        <time>2022-12-07T08:57:05Z</time>
      </trkpt>
      <trkpt lat="36.3774520" lon="-5.2500580">
        <ele>137.9</ele>
        <time>2022-12-07T08:57:45Z</time>
      </trkpt>
      <trkpt lat="36.3774470" lon="-5.2500320">
        <ele>137.9</ele>
        <time>2022-12-07T08:58:25Z</time>
      </trkpt>
      <trkpt lat="36.3774420" lon="-5.2499920">
        <ele>137.8</ele>
        <time>2022-12-07T08:59:05Z</time>
      </trkpt>
      <trkpt lat="36.3774310" lon="-5.2499460">
        <ele>137.8</ele>
        <time>2022-12-07T08:59:45Z</time>
      </trkpt>
      <trkpt lat="36.3774130" lon="-5.2498960">
        <ele>137.7</ele>
        <time>2022-12-07T09:00:25Z</time>
      </trkpt>
      <trkpt lat="36.3773910" lon="-5.2498380">
        <ele>137.6</ele>
        <time>2022-12-07T09:01:05Z</time>
      </trkpt>
      <trkpt lat="36.3773680" lon="-5.2497760">
        <ele>137.5</ele>
        <time>2022-12-07T09:01:45Z</time>
      </trkpt>
      <trkpt lat="36.3773540" lon="-5.2497100">
        <ele>137.4</ele>
        <time>2022-12-07T09:02:25Z</time>
      </trkpt>
      <trkpt lat="36.3773460" lon="-5.2496460">
        <ele>137.4</ele>
        <time>2022-12-07T09:03:05Z</time>
      </trkpt>
      <trkpt lat="36.3773330" lon="-5.2495930">
        <ele>137.3</ele>
        <time>2022-12-07T09:03:45Z</time>
      </trkpt>
      <trkpt lat="36.3773130" lon="-5.2495310">
        <ele>137.2</ele>
        <time>2022-12-07T09:04:25Z</time>
      </trkpt>
      <trkpt lat="36.3772780" lon="-5.2494860">
        <ele>137.1</ele>
        <time>2022-12-07T09:05:05Z</time>
      </trkpt>
      <trkpt lat="36.3772490" lon="-5.2494360">
        <ele>137.0</ele>
        <time>2022-12-07T09:05:45Z</time>
      </trkpt>
      <trkpt lat="36.3772170" lon="-5.2493770">
        <ele>136.9</ele>
        <time>2022-12-07T09:06:25Z</time>
      </trkpt>
      <trkpt lat="36.3771820" lon="-5.2493160">
        <ele>136.8</ele>
        <time>2022-12-07T09:07:05Z</time>
      </trkpt>
      <trkpt lat="36.3771530" lon="-5.2492630">
        <ele>136.7</ele>
        <time>2022-12-07T09:07:45Z</time>
      </trkpt>
      <trkpt lat="36.3771150" lon="-5.2492200">
        <ele>136.6</ele>
        <time>2022-12-07T09:08:25Z</time>
      </trkpt>
      <trkpt lat="36.3770870" lon="-5.2491680">
        <ele>136.5</ele>
        <time>2022-12-07T09:09:05Z</time>
      </trkpt>
      <trkpt lat="36.3770580" lon="-5.2491120">
        <ele>136.4</ele>
        <time>2022-12-07T09:09:45Z</time>
      </trkpt>
      <trkpt lat="36.3770270" lon="-5.2490550">
        <ele>136.3</ele>
        <time>2022-12-07T09:10:25Z</time>
      </trkpt>
      <trkpt lat="36.3769970" lon="-5.2490010">
        <ele>136.2</ele>
        <time>2022-12-07T09:11:05Z</time>
      </trkpt>
      <trkpt lat="36.3769670" lon="-5.2489450">
        <ele>136.2</ele>
        <time>2022-12-07T09:11:45Z</time>
      </trkpt>
      <trkpt lat="36.3769380" lon="-5.2488840">
        <ele>136.1</ele>
        <time>2022-12-07T09:12:25Z</time>
      </trkpt>
      <trkpt lat="36.3769090" lon="-5.2488190">
        <ele>136.0</ele>
        <time>2022-12-07T09:13:05Z</time>
      </trkpt>
      <trkpt lat="36.3768770" lon="-5.2487510">
        <ele>135.8</ele>
        <time>2022-12-07T09:13:45Z</time>
      </trkpt>
      <trkpt lat="36.3768430" lon="-5.2486850">
        <ele>135.7</ele>
        <time>2022-12-07T09:14:25Z</time>
      </trkpt>
      <trkpt lat="36.3768120" lon="-5.2486270">
        <ele>135.4</ele>
        <time>2022-12-07T09:15:05Z</time>
      </trkpt>
      <trkpt lat="36.3767830" lon="-5.2485710">
        <ele>135.1</ele>
        <time>2022-12-07T09:15:45Z</time>
      </trkpt>
      <trkpt lat="36.3767580" lon="-5.2485050">
        <ele>134.7</ele>
        <time>2022-12-07T09:16:25Z</time>
      </trkpt>
      <trkpt lat="36.3767350" lon="-5.2484320">
        <ele>134.2</ele>
        <time>2022-12-07T09:17:05Z</time>
      </trkpt>
      <trkpt lat="36.3767100" lon="-5.2483550">
        <ele>133.7</ele>
        <time>2022-12-07T09:17:45Z</time>
      </trkpt>
      <trkpt lat="36.3766850" lon="-5.2482720">
        <ele>133.1</ele>
        <time>2022-12-07T09:18:25Z</time>
      </trkpt>
      <trkpt lat="36.3766560" lon="-5.2481860">
        <ele>132.6</ele>
        <time>2022-12-07T09:19:05Z</time>
      </trkpt>
      <trkpt lat="36.3766170" lon="-5.2481010">
        <ele>132.1</ele>
        <time>2022-12-07T09:19:45Z</time>
      </trkpt>
      <trkpt lat="36.3765730" lon="-5.2480190">
        <ele>132.0</ele>
        <time>2022-12-07T09:20:25Z</time>
      </trkpt>
      <trkpt lat="36.3765320" lon="-5.2479350">
        <ele>131.9</ele>
        <time>2022-12-07T09:21:05Z</time>
      </trkpt>
      <trkpt lat="36.3764900" lon="-5.2478500">
        <ele>131.8</ele>
        <time>2022-12-07T09:21:45Z</time>
      </trkpt>
      <trkpt lat="36.3764500" lon="-5.2477660">
        <ele>131.6</ele>
        <time>2022-12-07T09:22:25Z</time>
      </trkpt>
      <trkpt lat="36.3764100" lon="-5.2476820">
        <ele>131.4</ele>
        <time>2022-12-07T09:23:05Z</time>
      </trkpt>
      <trkpt lat="36.3763660" lon="-5.2475960">
        <ele>131.1</ele>
        <time>2022-12-07T09:23:45Z</time>
      </trkpt>
      <trkpt lat="36.3763220" lon="-5.2475070">
        <ele>130.7</ele>
        <time>2022-12-07T09:24:25Z</time>
      </trkpt>
      <trkpt lat="36.3762760" lon="-5.2474150">
        <ele>130.3</ele>
        <time>2022-12-07T09:25:05Z</time>
      </trkpt>
      <trkpt lat="36.3762310" lon="-5.2473210">
        <ele>129.8</ele>
        <time>2022-12-07T09:25:45Z</time>
      </trkpt>
      <trkpt lat="36.3761810" lon="-5.2472300">
        <ele>129.4</ele>
        <time>2022-12-07T09:26:25Z</time>
      </trkpt>
      <trkpt lat="36.3761310" lon="-5.2471350">
        <ele>128.9</ele>
        <time>2022-12-07T09:27:05Z</time>
      </trkpt>
      <trkpt lat="36.3760810" lon="-5.2470430">
        <ele>128.5</ele>
        <time>2022-12-07T09:27:45Z</time>
      </trkpt>
      <trkpt lat="36.3760340" lon="-5.2469530">
        <ele>128.0</ele>
        <time>2022-12-07T09:28:25Z</time>
      </trkpt>
      <trkpt lat="36.3759870" lon="-5.2468570">
        <ele>127.7</ele>
        <time>2022-12-07T09:29:05Z</time>
      </trkpt>
      <trkpt lat="36.3759230" lon="-5.2467620">
        <ele>127.2</ele>
        <time>2022-12-07T09:29:45Z</time>
      </trkpt>
    </trkseg>
  </trk>
</gpx>
